<?xml version="1.0" encoding="UTF-8" standalone="no" ?>
<gpx xmlns="http://www.topografix.com/GPX/1/1" xmlns:xsi="http://www.w3.org/2001/XMLSchema-instance" xsi:schemaLocation="http://www.topografix.com/GPX/1/1 http://www.topografix.com/GPX/1/1/gpx.xsd" version="1.1" creator="VisuGPX - https://www.visugpx.com">
  <metadata>
    <name>Mini Raid des Jambes Raides - VTT'O</name>
    <desc><![CDATA[2ème section d'un mini raid organisé par Arnaud.]]></desc>
  </metadata>
  <trk>
    <name><![CDATA[51]]></name>
    <trkseg>
      <trkpt lat="43.74274" lon="7.25553">
        <ele>382</ele>
        <time>2010-08-28T08:24:57Z</time>
      </trkpt>
      <trkpt lat="43.74273" lon="7.25555">
        <ele>382</ele>
        <time>2010-08-28T08:25:09Z</time>
      </trkpt>
      <trkpt lat="43.74273" lon="7.25554">
        <ele>382</ele>
        <time>2010-08-28T08:25:16Z</time>
      </trkpt>
      <trkpt lat="43.74273" lon="7.25553">
        <ele>382</ele>
        <time>2010-08-28T08:25:25Z</time>
      </trkpt>
      <trkpt lat="43.74275" lon="7.25553">
        <ele>382</ele>
        <time>2010-08-28T08:25:28Z</time>
      </trkpt>
      <trkpt lat="43.74278" lon="7.25553">
        <ele>382</ele>
        <time>2010-08-28T08:25:34Z</time>
      </trkpt>
      <trkpt lat="43.74278" lon="7.25552">
        <ele>382</ele>
        <time>2010-08-28T08:25:48Z</time>
      </trkpt>
      <trkpt lat="43.74278" lon="7.25553">
        <ele>382</ele>
        <time>2010-08-28T08:25:54Z</time>
      </trkpt>
      <trkpt lat="43.74279" lon="7.25553">
        <ele>382</ele>
        <time>2010-08-28T08:25:58Z</time>
      </trkpt>
      <trkpt lat="43.74281" lon="7.25553">
        <ele>382</ele>
        <time>2010-08-28T08:26:02Z</time>
      </trkpt>
      <trkpt lat="43.74284" lon="7.25553">
        <ele>382</ele>
        <time>2010-08-28T08:26:12Z</time>
      </trkpt>
      <trkpt lat="43.74281" lon="7.25557">
        <ele>382</ele>
        <time>2010-08-28T08:26:17Z</time>
      </trkpt>
      <trkpt lat="43.74279" lon="7.25557">
        <ele>382</ele>
        <time>2010-08-28T08:26:37Z</time>
      </trkpt>
      <trkpt lat="43.74284" lon="7.25556">
        <ele>382</ele>
        <time>2010-08-28T08:26:47Z</time>
      </trkpt>
      <trkpt lat="43.74282" lon="7.25553">
        <ele>382</ele>
        <time>2010-08-28T08:26:52Z</time>
      </trkpt>
      <trkpt lat="43.74281" lon="7.25554">
        <ele>382</ele>
        <time>2010-08-28T08:27:04Z</time>
      </trkpt>
      <trkpt lat="43.74281" lon="7.25553">
        <ele>382</ele>
        <time>2010-08-28T08:27:16Z</time>
      </trkpt>
      <trkpt lat="43.74282" lon="7.25553">
        <ele>382</ele>
        <time>2010-08-28T08:27:24Z</time>
      </trkpt>
      <trkpt lat="43.74288" lon="7.25565">
        <ele>382</ele>
        <time>2010-08-28T08:27:29Z</time>
      </trkpt>
      <trkpt lat="43.7429" lon="7.25572">
        <ele>382</ele>
        <time>2010-08-28T08:27:31Z</time>
      </trkpt>
      <trkpt lat="43.74298" lon="7.25594">
        <ele>380</ele>
        <time>2010-08-28T08:27:37Z</time>
      </trkpt>
      <trkpt lat="43.74302" lon="7.25616">
        <ele>380</ele>
        <time>2010-08-28T08:27:43Z</time>
      </trkpt>
      <trkpt lat="43.74308" lon="7.25621">
        <ele>380</ele>
        <time>2010-08-28T08:27:47Z</time>
      </trkpt>
      <trkpt lat="43.74318" lon="7.25621">
        <ele>380</ele>
        <time>2010-08-28T08:27:52Z</time>
      </trkpt>
      <trkpt lat="43.74329" lon="7.25625">
        <ele>380</ele>
        <time>2010-08-28T08:27:57Z</time>
      </trkpt>
      <trkpt lat="43.7433" lon="7.25627">
        <ele>380</ele>
        <time>2010-08-28T08:27:58Z</time>
      </trkpt>
      <trkpt lat="43.74333" lon="7.25635">
        <ele>383</ele>
        <time>2010-08-28T08:28:01Z</time>
      </trkpt>
      <trkpt lat="43.74344" lon="7.2564">
        <ele>383</ele>
        <time>2010-08-28T08:28:06Z</time>
      </trkpt>
      <trkpt lat="43.74355" lon="7.25645">
        <ele>383</ele>
        <time>2010-08-28T08:28:11Z</time>
      </trkpt>
      <trkpt lat="43.74367" lon="7.25648">
        <ele>383</ele>
        <time>2010-08-28T08:28:17Z</time>
      </trkpt>
      <trkpt lat="43.74376" lon="7.2565">
        <ele>384</ele>
        <time>2010-08-28T08:28:21Z</time>
      </trkpt>
      <trkpt lat="43.74387" lon="7.25651">
        <ele>384</ele>
        <time>2010-08-28T08:28:26Z</time>
      </trkpt>
      <trkpt lat="43.74396" lon="7.25644">
        <ele>384</ele>
        <time>2010-08-28T08:28:31Z</time>
      </trkpt>
      <trkpt lat="43.74403" lon="7.2564">
        <ele>384</ele>
        <time>2010-08-28T08:28:35Z</time>
      </trkpt>
      <trkpt lat="43.74422" lon="7.25641">
        <ele>388</ele>
        <time>2010-08-28T08:28:43Z</time>
      </trkpt>
      <trkpt lat="43.74435" lon="7.25641">
        <ele>388</ele>
        <time>2010-08-28T08:28:48Z</time>
      </trkpt>
      <trkpt lat="43.74453" lon="7.25641">
        <ele>389</ele>
        <time>2010-08-28T08:28:55Z</time>
      </trkpt>
      <trkpt lat="43.74457" lon="7.25637">
        <ele>390</ele>
        <time>2010-08-28T08:28:57Z</time>
      </trkpt>
      <trkpt lat="43.74469" lon="7.25632">
        <ele>391</ele>
        <time>2010-08-28T08:29:02Z</time>
      </trkpt>
      <trkpt lat="43.74478" lon="7.2563">
        <ele>391</ele>
        <time>2010-08-28T08:29:06Z</time>
      </trkpt>
      <trkpt lat="43.7448" lon="7.25628">
        <ele>391</ele>
        <time>2010-08-28T08:29:07Z</time>
      </trkpt>
      <trkpt lat="43.74493" lon="7.25617">
        <ele>392</ele>
        <time>2010-08-28T08:29:13Z</time>
      </trkpt>
      <trkpt lat="43.74503" lon="7.25615">
        <ele>396</ele>
        <time>2010-08-28T08:29:18Z</time>
      </trkpt>
      <trkpt lat="43.74515" lon="7.25617">
        <ele>397</ele>
        <time>2010-08-28T08:29:23Z</time>
      </trkpt>
      <trkpt lat="43.74525" lon="7.25617">
        <ele>397</ele>
        <time>2010-08-28T08:29:27Z</time>
      </trkpt>
      <trkpt lat="43.74537" lon="7.25615">
        <ele>397</ele>
        <time>2010-08-28T08:29:32Z</time>
      </trkpt>
      <trkpt lat="43.74546" lon="7.25619">
        <ele>398</ele>
        <time>2010-08-28T08:29:37Z</time>
      </trkpt>
      <trkpt lat="43.74551" lon="7.25624">
        <ele>398</ele>
        <time>2010-08-28T08:29:40Z</time>
      </trkpt>
      <trkpt lat="43.74557" lon="7.25621">
        <ele>398</ele>
        <time>2010-08-28T08:29:45Z</time>
      </trkpt>
      <trkpt lat="43.7456" lon="7.25619">
        <ele>398</ele>
        <time>2010-08-28T08:29:51Z</time>
      </trkpt>
      <trkpt lat="43.74564" lon="7.25612">
        <ele>398</ele>
        <time>2010-08-28T08:29:56Z</time>
      </trkpt>
      <trkpt lat="43.74567" lon="7.25607">
        <ele>398</ele>
        <time>2010-08-28T08:30:00Z</time>
      </trkpt>
      <trkpt lat="43.74568" lon="7.25605">
        <ele>398</ele>
        <time>2010-08-28T08:30:07Z</time>
      </trkpt>
      <trkpt lat="43.74569" lon="7.25602">
        <ele>398</ele>
        <time>2010-08-28T08:30:27Z</time>
      </trkpt>
      <trkpt lat="43.74569" lon="7.25598">
        <ele>398</ele>
        <time>2010-08-28T08:30:37Z</time>
      </trkpt>
      <trkpt lat="43.74568" lon="7.25592">
        <ele>398</ele>
        <time>2010-08-28T08:30:41Z</time>
      </trkpt>
      <trkpt lat="43.74568" lon="7.25583">
        <ele>398</ele>
        <time>2010-08-28T08:30:45Z</time>
      </trkpt>
      <trkpt lat="43.74564" lon="7.25576">
        <ele>398</ele>
        <time>2010-08-28T08:30:49Z</time>
      </trkpt>
      <trkpt lat="43.74562" lon="7.25573">
        <ele>398</ele>
        <time>2010-08-28T08:30:51Z</time>
      </trkpt>
      <trkpt lat="43.74559" lon="7.25565">
        <ele>398</ele>
        <time>2010-08-28T08:30:57Z</time>
      </trkpt>
      <trkpt lat="43.74559" lon="7.25555">
        <ele>398</ele>
        <time>2010-08-28T08:31:01Z</time>
      </trkpt>
      <trkpt lat="43.7456" lon="7.25551">
        <ele>398</ele>
        <time>2010-08-28T08:31:03Z</time>
      </trkpt>
      <trkpt lat="43.7456" lon="7.25541">
        <ele>398</ele>
        <time>2010-08-28T08:31:08Z</time>
      </trkpt>
      <trkpt lat="43.74558" lon="7.25527">
        <ele>398</ele>
        <time>2010-08-28T08:31:12Z</time>
      </trkpt>
      <trkpt lat="43.74569" lon="7.25518">
        <ele>398</ele>
        <time>2010-08-28T08:31:16Z</time>
      </trkpt>
      <trkpt lat="43.74577" lon="7.25517">
        <ele>398</ele>
        <time>2010-08-28T08:31:18Z</time>
      </trkpt>
      <trkpt lat="43.74579" lon="7.25516">
        <ele>398</ele>
        <time>2010-08-28T08:31:23Z</time>
      </trkpt>
      <trkpt lat="43.7458" lon="7.25515">
        <ele>398</ele>
        <time>2010-08-28T08:31:34Z</time>
      </trkpt>
      <trkpt lat="43.74588" lon="7.25512">
        <ele>397</ele>
        <time>2010-08-28T08:31:38Z</time>
      </trkpt>
      <trkpt lat="43.74612" lon="7.25504">
        <ele>398</ele>
        <time>2010-08-28T08:31:45Z</time>
      </trkpt>
      <trkpt lat="43.74629" lon="7.25497">
        <ele>395</ele>
        <time>2010-08-28T08:31:50Z</time>
      </trkpt>
      <trkpt lat="43.74636" lon="7.25495">
        <ele>395</ele>
        <time>2010-08-28T08:31:54Z</time>
      </trkpt>
      <trkpt lat="43.7464" lon="7.25496">
        <ele>395</ele>
        <time>2010-08-28T08:31:59Z</time>
      </trkpt>
      <trkpt lat="43.74647" lon="7.25498">
        <ele>395</ele>
        <time>2010-08-28T08:32:05Z</time>
      </trkpt>
      <trkpt lat="43.74653" lon="7.25496">
        <ele>395</ele>
        <time>2010-08-28T08:32:10Z</time>
      </trkpt>
      <trkpt lat="43.74658" lon="7.25498">
        <ele>395</ele>
        <time>2010-08-28T08:32:16Z</time>
      </trkpt>
      <trkpt lat="43.74661" lon="7.25502">
        <ele>397</ele>
        <time>2010-08-28T08:32:21Z</time>
      </trkpt>
      <trkpt lat="43.74664" lon="7.25503">
        <ele>396</ele>
        <time>2010-08-28T08:32:25Z</time>
      </trkpt>
      <trkpt lat="43.7467" lon="7.25505">
        <ele>397</ele>
        <time>2010-08-28T08:32:33Z</time>
      </trkpt>
      <trkpt lat="43.74674" lon="7.25503">
        <ele>397</ele>
        <time>2010-08-28T08:32:35Z</time>
      </trkpt>
      <trkpt lat="43.7468" lon="7.25498">
        <ele>393</ele>
        <time>2010-08-28T08:32:39Z</time>
      </trkpt>
      <trkpt lat="43.74683" lon="7.25497">
        <ele>393</ele>
        <time>2010-08-28T08:32:43Z</time>
      </trkpt>
      <trkpt lat="43.74686" lon="7.25498">
        <ele>393</ele>
        <time>2010-08-28T08:32:51Z</time>
      </trkpt>
      <trkpt lat="43.74687" lon="7.25504">
        <ele>398</ele>
        <time>2010-08-28T08:32:58Z</time>
      </trkpt>
      <trkpt lat="43.74687" lon="7.25504">
        <ele>398</ele>
        <time>2010-08-28T08:33:05Z</time>
      </trkpt>
      <trkpt lat="43.7469" lon="7.25507">
        <ele>398</ele>
        <time>2010-08-28T08:33:10Z</time>
      </trkpt>
      <trkpt lat="43.74691" lon="7.25513">
        <ele>398</ele>
        <time>2010-08-28T08:33:15Z</time>
      </trkpt>
      <trkpt lat="43.74691" lon="7.25515">
        <ele>398</ele>
        <time>2010-08-28T08:33:16Z</time>
      </trkpt>
      <trkpt lat="43.74691" lon="7.25518">
        <ele>398</ele>
        <time>2010-08-28T08:33:18Z</time>
      </trkpt>
      <trkpt lat="43.74695" lon="7.25522">
        <ele>399</ele>
        <time>2010-08-28T08:33:22Z</time>
      </trkpt>
      <trkpt lat="43.74695" lon="7.25527">
        <ele>399</ele>
        <time>2010-08-28T08:33:26Z</time>
      </trkpt>
      <trkpt lat="43.74693" lon="7.25534">
        <ele>399</ele>
        <time>2010-08-28T08:33:31Z</time>
      </trkpt>
      <trkpt lat="43.74692" lon="7.25541">
        <ele>400</ele>
        <time>2010-08-28T08:33:35Z</time>
      </trkpt>
      <trkpt lat="43.74692" lon="7.25552">
        <ele>400</ele>
        <time>2010-08-28T08:33:42Z</time>
      </trkpt>
      <trkpt lat="43.74687" lon="7.25564">
        <ele>401</ele>
        <time>2010-08-28T08:33:50Z</time>
      </trkpt>
      <trkpt lat="43.74686" lon="7.25567">
        <ele>401</ele>
        <time>2010-08-28T08:33:53Z</time>
      </trkpt>
      <trkpt lat="43.74686" lon="7.25569">
        <ele>401</ele>
        <time>2010-08-28T08:34:00Z</time>
      </trkpt>
      <trkpt lat="43.74685" lon="7.2557">
        <ele>401</ele>
        <time>2010-08-28T08:34:16Z</time>
      </trkpt>
      <trkpt lat="43.74698" lon="7.25567">
        <ele>401</ele>
        <time>2010-08-28T08:34:21Z</time>
      </trkpt>
      <trkpt lat="43.74721" lon="7.2557">
        <ele>402</ele>
        <time>2010-08-28T08:34:27Z</time>
      </trkpt>
      <trkpt lat="43.74742" lon="7.25574">
        <ele>404</ele>
        <time>2010-08-28T08:34:33Z</time>
      </trkpt>
      <trkpt lat="43.74754" lon="7.25573">
        <ele>405</ele>
        <time>2010-08-28T08:34:37Z</time>
      </trkpt>
      <trkpt lat="43.74771" lon="7.2557">
        <ele>404</ele>
        <time>2010-08-28T08:34:42Z</time>
      </trkpt>
      <trkpt lat="43.74802" lon="7.25566">
        <ele>404</ele>
        <time>2010-08-28T08:34:51Z</time>
      </trkpt>
      <trkpt lat="43.74805" lon="7.25565">
        <ele>404</ele>
        <time>2010-08-28T08:34:54Z</time>
      </trkpt>
      <trkpt lat="43.74807" lon="7.25564">
        <ele>404</ele>
        <time>2010-08-28T08:35:02Z</time>
      </trkpt>
      <trkpt lat="43.74815" lon="7.25563">
        <ele>405</ele>
        <time>2010-08-28T08:35:08Z</time>
      </trkpt>
      <trkpt lat="43.74816" lon="7.25566">
        <ele>405</ele>
        <time>2010-08-28T08:35:12Z</time>
      </trkpt>
      <trkpt lat="43.74824" lon="7.25567">
        <ele>406</ele>
        <time>2010-08-28T08:35:17Z</time>
      </trkpt>
      <trkpt lat="43.74838" lon="7.25565">
        <ele>407</ele>
        <time>2010-08-28T08:35:22Z</time>
      </trkpt>
      <trkpt lat="43.74854" lon="7.25563">
        <ele>406</ele>
        <time>2010-08-28T08:35:27Z</time>
      </trkpt>
      <trkpt lat="43.74871" lon="7.25564">
        <ele>406</ele>
        <time>2010-08-28T08:35:32Z</time>
      </trkpt>
      <trkpt lat="43.74874" lon="7.25565">
        <ele>406</ele>
        <time>2010-08-28T08:35:33Z</time>
      </trkpt>
      <trkpt lat="43.74891" lon="7.25562">
        <ele>407</ele>
        <time>2010-08-28T08:35:38Z</time>
      </trkpt>
      <trkpt lat="43.749" lon="7.25562">
        <ele>407</ele>
        <time>2010-08-28T08:35:41Z</time>
      </trkpt>
      <trkpt lat="43.74925" lon="7.25557">
        <ele>408</ele>
        <time>2010-08-28T08:35:47Z</time>
      </trkpt>
      <trkpt lat="43.74932" lon="7.25557">
        <ele>408</ele>
        <time>2010-08-28T08:35:49Z</time>
      </trkpt>
      <trkpt lat="43.7494" lon="7.25554">
        <ele>407</ele>
        <time>2010-08-28T08:35:53Z</time>
      </trkpt>
      <trkpt lat="43.74943" lon="7.25555">
        <ele>407</ele>
        <time>2010-08-28T08:35:54Z</time>
      </trkpt>
      <trkpt lat="43.74952" lon="7.25554">
        <ele>407</ele>
        <time>2010-08-28T08:35:57Z</time>
      </trkpt>
      <trkpt lat="43.74962" lon="7.25548">
        <ele>407</ele>
        <time>2010-08-28T08:36:01Z</time>
      </trkpt>
      <trkpt lat="43.74971" lon="7.25549">
        <ele>407</ele>
        <time>2010-08-28T08:36:04Z</time>
      </trkpt>
      <trkpt lat="43.74978" lon="7.25548">
        <ele>407</ele>
        <time>2010-08-28T08:36:06Z</time>
      </trkpt>
      <trkpt lat="43.74985" lon="7.25546">
        <ele>407</ele>
        <time>2010-08-28T08:36:08Z</time>
      </trkpt>
      <trkpt lat="43.74998" lon="7.25546">
        <ele>407</ele>
        <time>2010-08-28T08:36:12Z</time>
      </trkpt>
      <trkpt lat="43.75008" lon="7.25542">
        <ele>411</ele>
        <time>2010-08-28T08:36:16Z</time>
      </trkpt>
      <trkpt lat="43.75017" lon="7.25539">
        <ele>411</ele>
        <time>2010-08-28T08:36:19Z</time>
      </trkpt>
      <trkpt lat="43.75037" lon="7.25534">
        <ele>411</ele>
        <time>2010-08-28T08:36:25Z</time>
      </trkpt>
      <trkpt lat="43.75047" lon="7.25533">
        <ele>412</ele>
        <time>2010-08-28T08:36:28Z</time>
      </trkpt>
      <trkpt lat="43.75058" lon="7.25528">
        <ele>412</ele>
        <time>2010-08-28T08:36:32Z</time>
      </trkpt>
      <trkpt lat="43.7507" lon="7.25529">
        <ele>412</ele>
        <time>2010-08-28T08:36:37Z</time>
      </trkpt>
      <trkpt lat="43.75078" lon="7.25527">
        <ele>412</ele>
        <time>2010-08-28T08:36:40Z</time>
      </trkpt>
      <trkpt lat="43.75087" lon="7.25525">
        <ele>418</ele>
        <time>2010-08-28T08:36:44Z</time>
      </trkpt>
      <trkpt lat="43.75098" lon="7.2552">
        <ele>418</ele>
        <time>2010-08-28T08:36:48Z</time>
      </trkpt>
      <trkpt lat="43.75104" lon="7.25517">
        <ele>418</ele>
        <time>2010-08-28T08:36:50Z</time>
      </trkpt>
      <trkpt lat="43.75111" lon="7.25503">
        <ele>418</ele>
        <time>2010-08-28T08:36:55Z</time>
      </trkpt>
      <trkpt lat="43.7512" lon="7.25472">
        <ele>416</ele>
        <time>2010-08-28T08:37:02Z</time>
      </trkpt>
      <trkpt lat="43.75127" lon="7.25456">
        <ele>416</ele>
        <time>2010-08-28T08:37:06Z</time>
      </trkpt>
      <trkpt lat="43.75137" lon="7.25434">
        <ele>417</ele>
        <time>2010-08-28T08:37:11Z</time>
      </trkpt>
      <trkpt lat="43.75149" lon="7.25413">
        <ele>418</ele>
        <time>2010-08-28T08:37:16Z</time>
      </trkpt>
      <trkpt lat="43.75162" lon="7.25392">
        <ele>419</ele>
        <time>2010-08-28T08:37:21Z</time>
      </trkpt>
      <trkpt lat="43.75175" lon="7.25377">
        <ele>423</ele>
        <time>2010-08-28T08:37:26Z</time>
      </trkpt>
      <trkpt lat="43.75179" lon="7.25372">
        <ele>423</ele>
        <time>2010-08-28T08:37:28Z</time>
      </trkpt>
      <trkpt lat="43.75191" lon="7.25361">
        <ele>424</ele>
        <time>2010-08-28T08:37:33Z</time>
      </trkpt>
      <trkpt lat="43.75205" lon="7.25353">
        <ele>424</ele>
        <time>2010-08-28T08:37:39Z</time>
      </trkpt>
      <trkpt lat="43.75218" lon="7.25345">
        <ele>425</ele>
        <time>2010-08-28T08:37:45Z</time>
      </trkpt>
      <trkpt lat="43.75227" lon="7.25342">
        <ele>425</ele>
        <time>2010-08-28T08:37:49Z</time>
      </trkpt>
      <trkpt lat="43.75231" lon="7.25326">
        <ele>425</ele>
        <time>2010-08-28T08:37:54Z</time>
      </trkpt>
      <trkpt lat="43.75235" lon="7.25307">
        <ele>425</ele>
        <time>2010-08-28T08:37:58Z</time>
      </trkpt>
      <trkpt lat="43.75246" lon="7.25299">
        <ele>425</ele>
        <time>2010-08-28T08:38:02Z</time>
      </trkpt>
      <trkpt lat="43.75269" lon="7.25298">
        <ele>427</ele>
        <time>2010-08-28T08:38:09Z</time>
      </trkpt>
      <trkpt lat="43.75284" lon="7.25303">
        <ele>427</ele>
        <time>2010-08-28T08:38:14Z</time>
      </trkpt>
      <trkpt lat="43.75294" lon="7.25304">
        <ele>427</ele>
        <time>2010-08-28T08:38:18Z</time>
      </trkpt>
      <trkpt lat="43.75309" lon="7.2531">
        <ele>428</ele>
        <time>2010-08-28T08:38:24Z</time>
      </trkpt>
      <trkpt lat="43.75317" lon="7.25307">
        <ele>428</ele>
        <time>2010-08-28T08:38:27Z</time>
      </trkpt>
      <trkpt lat="43.75335" lon="7.253">
        <ele>429</ele>
        <time>2010-08-28T08:38:34Z</time>
      </trkpt>
      <trkpt lat="43.75345" lon="7.25302">
        <ele>429</ele>
        <time>2010-08-28T08:38:38Z</time>
      </trkpt>
      <trkpt lat="43.75353" lon="7.25298">
        <ele>429</ele>
        <time>2010-08-28T08:38:43Z</time>
      </trkpt>
      <trkpt lat="43.7537" lon="7.25288">
        <ele>430</ele>
        <time>2010-08-28T08:38:50Z</time>
      </trkpt>
      <trkpt lat="43.75383" lon="7.25262">
        <ele>429</ele>
        <time>2010-08-28T08:38:57Z</time>
      </trkpt>
      <trkpt lat="43.75399" lon="7.25246">
        <ele>429</ele>
        <time>2010-08-28T08:39:02Z</time>
      </trkpt>
      <trkpt lat="43.75424" lon="7.2523">
        <ele>429</ele>
        <time>2010-08-28T08:39:09Z</time>
      </trkpt>
      <trkpt lat="43.75448" lon="7.25227">
        <ele>429</ele>
        <time>2010-08-28T08:39:15Z</time>
      </trkpt>
      <trkpt lat="43.75461" lon="7.25228">
        <ele>429</ele>
        <time>2010-08-28T08:39:18Z</time>
      </trkpt>
      <trkpt lat="43.7547" lon="7.25229">
        <ele>430</ele>
        <time>2010-08-28T08:39:20Z</time>
      </trkpt>
      <trkpt lat="43.75487" lon="7.25228">
        <ele>430</ele>
        <time>2010-08-28T08:39:24Z</time>
      </trkpt>
      <trkpt lat="43.75491" lon="7.25238">
        <ele>431</ele>
        <time>2010-08-28T08:39:27Z</time>
      </trkpt>
      <trkpt lat="43.7549" lon="7.25242">
        <ele>431</ele>
        <time>2010-08-28T08:39:28Z</time>
      </trkpt>
      <trkpt lat="43.75489" lon="7.25252">
        <ele>433</ele>
        <time>2010-08-28T08:39:31Z</time>
      </trkpt>
      <trkpt lat="43.75491" lon="7.25265">
        <ele>433</ele>
        <time>2010-08-28T08:39:37Z</time>
      </trkpt>
      <trkpt lat="43.75492" lon="7.25264">
        <ele>433</ele>
        <time>2010-08-28T08:39:52Z</time>
      </trkpt>
      <trkpt lat="43.75494" lon="7.25263">
        <ele>433</ele>
        <time>2010-08-28T08:39:57Z</time>
      </trkpt>
      <trkpt lat="43.75492" lon="7.25264">
        <ele>433</ele>
        <time>2010-08-28T08:40:03Z</time>
      </trkpt>
      <trkpt lat="43.75491" lon="7.25264">
        <ele>433</ele>
        <time>2010-08-28T08:40:09Z</time>
      </trkpt>
      <trkpt lat="43.75491" lon="7.25263">
        <ele>433</ele>
        <time>2010-08-28T08:40:17Z</time>
      </trkpt>
      <trkpt lat="43.75491" lon="7.25264">
        <ele>433</ele>
        <time>2010-08-28T08:40:26Z</time>
      </trkpt>
      <trkpt lat="43.75489" lon="7.25266">
        <ele>434</ele>
        <time>2010-08-28T08:40:29Z</time>
      </trkpt>
      <trkpt lat="43.75484" lon="7.25274">
        <ele>434</ele>
        <time>2010-08-28T08:40:33Z</time>
      </trkpt>
      <trkpt lat="43.75474" lon="7.25288">
        <ele>435</ele>
        <time>2010-08-28T08:40:41Z</time>
      </trkpt>
      <trkpt lat="43.75465" lon="7.253">
        <ele>435</ele>
        <time>2010-08-28T08:40:46Z</time>
      </trkpt>
      <trkpt lat="43.75452" lon="7.25319">
        <ele>435</ele>
        <time>2010-08-28T08:40:53Z</time>
      </trkpt>
      <trkpt lat="43.75438" lon="7.25336">
        <ele>441</ele>
        <time>2010-08-28T08:41:00Z</time>
      </trkpt>
      <trkpt lat="43.75426" lon="7.25353">
        <ele>441</ele>
        <time>2010-08-28T08:41:07Z</time>
      </trkpt>
      <trkpt lat="43.75414" lon="7.25371">
        <ele>438</ele>
        <time>2010-08-28T08:41:14Z</time>
      </trkpt>
      <trkpt lat="43.75404" lon="7.25388">
        <ele>439</ele>
        <time>2010-08-28T08:41:20Z</time>
      </trkpt>
      <trkpt lat="43.7539" lon="7.25416">
        <ele>440</ele>
        <time>2010-08-28T08:41:29Z</time>
      </trkpt>
      <trkpt lat="43.75385" lon="7.25426">
        <ele>447</ele>
        <time>2010-08-28T08:41:34Z</time>
      </trkpt>
      <trkpt lat="43.75385" lon="7.25427">
        <ele>447</ele>
        <time>2010-08-28T08:41:52Z</time>
      </trkpt>
      <trkpt lat="43.75377" lon="7.2544">
        <ele>447</ele>
        <time>2010-08-28T08:41:58Z</time>
      </trkpt>
      <trkpt lat="43.75363" lon="7.25468">
        <ele>448</ele>
        <time>2010-08-28T08:42:06Z</time>
      </trkpt>
      <trkpt lat="43.75357" lon="7.25482">
        <ele>448</ele>
        <time>2010-08-28T08:42:11Z</time>
      </trkpt>
      <trkpt lat="43.75356" lon="7.25487">
        <ele>448</ele>
        <time>2010-08-28T08:42:13Z</time>
      </trkpt>
      <trkpt lat="43.75353" lon="7.25494">
        <ele>448</ele>
        <time>2010-08-28T08:42:19Z</time>
      </trkpt>
      <trkpt lat="43.75353" lon="7.25495">
        <ele>448</ele>
        <time>2010-08-28T08:42:23Z</time>
      </trkpt>
      <trkpt lat="43.75348" lon="7.25504">
        <ele>453</ele>
        <time>2010-08-28T08:42:29Z</time>
      </trkpt>
      <trkpt lat="43.75343" lon="7.25516">
        <ele>454</ele>
        <time>2010-08-28T08:42:38Z</time>
      </trkpt>
      <trkpt lat="43.75339" lon="7.25529">
        <ele>456</ele>
        <time>2010-08-28T08:42:46Z</time>
      </trkpt>
      <trkpt lat="43.75336" lon="7.25544">
        <ele>458</ele>
        <time>2010-08-28T08:42:56Z</time>
      </trkpt>
      <trkpt lat="43.75335" lon="7.2555">
        <ele>459</ele>
        <time>2010-08-28T08:43:00Z</time>
      </trkpt>
      <trkpt lat="43.75332" lon="7.25562">
        <ele>455</ele>
        <time>2010-08-28T08:43:09Z</time>
      </trkpt>
      <trkpt lat="43.75328" lon="7.25573">
        <ele>457</ele>
        <time>2010-08-28T08:43:17Z</time>
      </trkpt>
      <trkpt lat="43.75326" lon="7.25583">
        <ele>459</ele>
        <time>2010-08-28T08:43:24Z</time>
      </trkpt>
      <trkpt lat="43.75323" lon="7.25596">
        <ele>462</ele>
        <time>2010-08-28T08:43:33Z</time>
      </trkpt>
      <trkpt lat="43.7532" lon="7.25608">
        <ele>463</ele>
        <time>2010-08-28T08:43:41Z</time>
      </trkpt>
      <trkpt lat="43.75318" lon="7.25619">
        <ele>464</ele>
        <time>2010-08-28T08:43:49Z</time>
      </trkpt>
      <trkpt lat="43.75315" lon="7.25633">
        <ele>465</ele>
        <time>2010-08-28T08:43:58Z</time>
      </trkpt>
      <trkpt lat="43.75311" lon="7.25645">
        <ele>466</ele>
        <time>2010-08-28T08:44:07Z</time>
      </trkpt>
      <trkpt lat="43.75309" lon="7.25659">
        <ele>467</ele>
        <time>2010-08-28T08:44:17Z</time>
      </trkpt>
      <trkpt lat="43.75306" lon="7.25671">
        <ele>475</ele>
        <time>2010-08-28T08:44:25Z</time>
      </trkpt>
      <trkpt lat="43.75303" lon="7.25682">
        <ele>475</ele>
        <time>2010-08-28T08:44:33Z</time>
      </trkpt>
      <trkpt lat="43.75299" lon="7.25697">
        <ele>476</ele>
        <time>2010-08-28T08:44:43Z</time>
      </trkpt>
      <trkpt lat="43.75296" lon="7.25709">
        <ele>477</ele>
        <time>2010-08-28T08:44:52Z</time>
      </trkpt>
      <trkpt lat="43.75293" lon="7.25722">
        <ele>478</ele>
        <time>2010-08-28T08:45:01Z</time>
      </trkpt>
      <trkpt lat="43.75292" lon="7.25728">
        <ele>478</ele>
        <time>2010-08-28T08:45:07Z</time>
      </trkpt>
      <trkpt lat="43.7529" lon="7.25738">
        <ele>478</ele>
        <time>2010-08-28T08:45:15Z</time>
      </trkpt>
      <trkpt lat="43.75288" lon="7.25747">
        <ele>479</ele>
        <time>2010-08-28T08:45:21Z</time>
      </trkpt>
      <trkpt lat="43.75288" lon="7.25749">
        <ele>479</ele>
        <time>2010-08-28T08:45:29Z</time>
      </trkpt>
      <trkpt lat="43.75285" lon="7.25759">
        <ele>485</ele>
        <time>2010-08-28T08:45:35Z</time>
      </trkpt>
      <trkpt lat="43.75281" lon="7.25776">
        <ele>486</ele>
        <time>2010-08-28T08:45:41Z</time>
      </trkpt>
      <trkpt lat="43.75276" lon="7.25799">
        <ele>487</ele>
        <time>2010-08-28T08:45:48Z</time>
      </trkpt>
      <trkpt lat="43.75271" lon="7.25821">
        <ele>487</ele>
        <time>2010-08-28T08:45:55Z</time>
      </trkpt>
      <trkpt lat="43.75267" lon="7.25839">
        <ele>491</ele>
        <time>2010-08-28T08:46:01Z</time>
      </trkpt>
      <trkpt lat="43.75261" lon="7.25848">
        <ele>491</ele>
        <time>2010-08-28T08:46:06Z</time>
      </trkpt>
      <trkpt lat="43.75249" lon="7.25856">
        <ele>488</ele>
        <time>2010-08-28T08:46:13Z</time>
      </trkpt>
      <trkpt lat="43.75238" lon="7.25854">
        <ele>487</ele>
        <time>2010-08-28T08:46:17Z</time>
      </trkpt>
      <trkpt lat="43.75213" lon="7.25859">
        <ele>486</ele>
        <time>2010-08-28T08:46:22Z</time>
      </trkpt>
      <trkpt lat="43.75207" lon="7.25862">
        <ele>486</ele>
        <time>2010-08-28T08:46:23Z</time>
      </trkpt>
      <trkpt lat="43.75183" lon="7.2587">
        <ele>485</ele>
        <time>2010-08-28T08:46:28Z</time>
      </trkpt>
      <trkpt lat="43.75179" lon="7.25871">
        <ele>485</ele>
        <time>2010-08-28T08:46:29Z</time>
      </trkpt>
      <trkpt lat="43.75159" lon="7.25872">
        <ele>480</ele>
        <time>2010-08-28T08:46:34Z</time>
      </trkpt>
      <trkpt lat="43.7514" lon="7.25871">
        <ele>479</ele>
        <time>2010-08-28T08:46:39Z</time>
      </trkpt>
      <trkpt lat="43.75118" lon="7.25873">
        <ele>479</ele>
        <time>2010-08-28T08:46:44Z</time>
      </trkpt>
      <trkpt lat="43.75098" lon="7.25874">
        <ele>478</ele>
        <time>2010-08-28T08:46:48Z</time>
      </trkpt>
      <trkpt lat="43.75081" lon="7.25865">
        <ele>473</ele>
        <time>2010-08-28T08:46:52Z</time>
      </trkpt>
      <trkpt lat="43.75053" lon="7.25858">
        <ele>473</ele>
        <time>2010-08-28T08:46:58Z</time>
      </trkpt>
      <trkpt lat="43.75048" lon="7.25858">
        <ele>473</ele>
        <time>2010-08-28T08:46:59Z</time>
      </trkpt>
      <trkpt lat="43.75025" lon="7.25858">
        <ele>472</ele>
        <time>2010-08-28T08:47:04Z</time>
      </trkpt>
      <trkpt lat="43.75023" lon="7.25857">
        <ele>472</ele>
        <time>2010-08-28T08:47:05Z</time>
      </trkpt>
      <trkpt lat="43.75006" lon="7.25851">
        <ele>471</ele>
        <time>2010-08-28T08:47:11Z</time>
      </trkpt>
      <trkpt lat="43.74988" lon="7.25852">
        <ele>469</ele>
        <time>2010-08-28T08:47:15Z</time>
      </trkpt>
      <trkpt lat="43.74976" lon="7.25853">
        <ele>469</ele>
        <time>2010-08-28T08:47:18Z</time>
      </trkpt>
      <trkpt lat="43.74964" lon="7.25841">
        <ele>469</ele>
        <time>2010-08-28T08:47:23Z</time>
      </trkpt>
      <trkpt lat="43.7495" lon="7.25838">
        <ele>468</ele>
        <time>2010-08-28T08:47:26Z</time>
      </trkpt>
      <trkpt lat="43.74941" lon="7.25836">
        <ele>468</ele>
        <time>2010-08-28T08:47:28Z</time>
      </trkpt>
      <trkpt lat="43.74919" lon="7.25836">
        <ele>467</ele>
        <time>2010-08-28T08:47:33Z</time>
      </trkpt>
      <trkpt lat="43.74902" lon="7.2584">
        <ele>467</ele>
        <time>2010-08-28T08:47:38Z</time>
      </trkpt>
      <trkpt lat="43.74896" lon="7.2584">
        <ele>467</ele>
        <time>2010-08-28T08:47:40Z</time>
      </trkpt>
      <trkpt lat="43.74884" lon="7.2584">
        <ele>467</ele>
        <time>2010-08-28T08:47:43Z</time>
      </trkpt>
      <trkpt lat="43.74863" lon="7.25838">
        <ele>467</ele>
        <time>2010-08-28T08:47:48Z</time>
      </trkpt>
      <trkpt lat="43.74854" lon="7.25839">
        <ele>467</ele>
        <time>2010-08-28T08:47:50Z</time>
      </trkpt>
      <trkpt lat="43.74838" lon="7.2584">
        <ele>467</ele>
        <time>2010-08-28T08:47:54Z</time>
      </trkpt>
      <trkpt lat="43.7483" lon="7.2584">
        <ele>466</ele>
        <time>2010-08-28T08:47:56Z</time>
      </trkpt>
      <trkpt lat="43.74809" lon="7.25839">
        <ele>464</ele>
        <time>2010-08-28T08:48:01Z</time>
      </trkpt>
      <trkpt lat="43.74791" lon="7.25839">
        <ele>463</ele>
        <time>2010-08-28T08:48:06Z</time>
      </trkpt>
      <trkpt lat="43.74772" lon="7.25845">
        <ele>462</ele>
        <time>2010-08-28T08:48:11Z</time>
      </trkpt>
      <trkpt lat="43.74769" lon="7.25846">
        <ele>462</ele>
        <time>2010-08-28T08:48:12Z</time>
      </trkpt>
      <trkpt lat="43.74767" lon="7.25846">
        <ele>462</ele>
        <time>2010-08-28T08:48:16Z</time>
      </trkpt>
      <trkpt lat="43.74768" lon="7.25846">
        <ele>462</ele>
        <time>2010-08-28T08:48:20Z</time>
      </trkpt>
      <trkpt lat="43.74768" lon="7.25846">
        <ele>462</ele>
        <time>2010-08-28T08:48:28Z</time>
      </trkpt>
      <trkpt lat="43.74768" lon="7.25846">
        <ele>462</ele>
        <time>2010-08-28T08:48:42Z</time>
      </trkpt>
      <trkpt lat="43.74768" lon="7.25846">
        <ele>462</ele>
        <time>2010-08-28T08:48:50Z</time>
      </trkpt>
      <trkpt lat="43.74774" lon="7.25846">
        <ele>462</ele>
        <time>2010-08-28T08:48:54Z</time>
      </trkpt>
      <trkpt lat="43.74775" lon="7.25846">
        <ele>462</ele>
        <time>2010-08-28T08:48:57Z</time>
      </trkpt>
      <trkpt lat="43.74787" lon="7.25843">
        <ele>463</ele>
        <time>2010-08-28T08:49:04Z</time>
      </trkpt>
      <trkpt lat="43.748" lon="7.2584">
        <ele>464</ele>
        <time>2010-08-28T08:49:10Z</time>
      </trkpt>
      <trkpt lat="43.74814" lon="7.25842">
        <ele>465</ele>
        <time>2010-08-28T08:49:16Z</time>
      </trkpt>
      <trkpt lat="43.74831" lon="7.25842">
        <ele>466</ele>
        <time>2010-08-28T08:49:22Z</time>
      </trkpt>
      <trkpt lat="43.7485" lon="7.25843">
        <ele>467</ele>
        <time>2010-08-28T08:49:27Z</time>
      </trkpt>
      <trkpt lat="43.74872" lon="7.25844">
        <ele>467</ele>
        <time>2010-08-28T08:49:32Z</time>
      </trkpt>
      <trkpt lat="43.74881" lon="7.25843">
        <ele>467</ele>
        <time>2010-08-28T08:49:34Z</time>
      </trkpt>
      <trkpt lat="43.74895" lon="7.25843">
        <ele>467</ele>
        <time>2010-08-28T08:49:39Z</time>
      </trkpt>
      <trkpt lat="43.74913" lon="7.25841">
        <ele>466</ele>
        <time>2010-08-28T08:49:45Z</time>
      </trkpt>
      <trkpt lat="43.7493" lon="7.25838">
        <ele>467</ele>
        <time>2010-08-28T08:49:50Z</time>
      </trkpt>
      <trkpt lat="43.74952" lon="7.25841">
        <ele>469</ele>
        <time>2010-08-28T08:49:55Z</time>
      </trkpt>
      <trkpt lat="43.74956" lon="7.25842">
        <ele>469</ele>
        <time>2010-08-28T08:49:56Z</time>
      </trkpt>
      <trkpt lat="43.74968" lon="7.25852">
        <ele>469</ele>
        <time>2010-08-28T08:50:00Z</time>
      </trkpt>
      <trkpt lat="43.74969" lon="7.25854">
        <ele>469</ele>
        <time>2010-08-28T08:50:01Z</time>
      </trkpt>
      <trkpt lat="43.74984" lon="7.25856">
        <ele>469</ele>
        <time>2010-08-28T08:50:07Z</time>
      </trkpt>
      <trkpt lat="43.74998" lon="7.25852">
        <ele>469</ele>
        <time>2010-08-28T08:50:11Z</time>
      </trkpt>
      <trkpt lat="43.75004" lon="7.25853">
        <ele>471</ele>
        <time>2010-08-28T08:50:13Z</time>
      </trkpt>
      <trkpt lat="43.75012" lon="7.25857">
        <ele>472</ele>
        <time>2010-08-28T08:50:17Z</time>
      </trkpt>
      <trkpt lat="43.75016" lon="7.25858">
        <ele>472</ele>
        <time>2010-08-28T08:50:21Z</time>
      </trkpt>
      <trkpt lat="43.75017" lon="7.25858">
        <ele>472</ele>
        <time>2010-08-28T08:50:22Z</time>
      </trkpt>
      <trkpt lat="43.75029" lon="7.25859">
        <ele>472</ele>
        <time>2010-08-28T08:50:30Z</time>
      </trkpt>
      <trkpt lat="43.75033" lon="7.25858">
        <ele>472</ele>
        <time>2010-08-28T08:50:33Z</time>
      </trkpt>
      <trkpt lat="43.75034" lon="7.25859">
        <ele>473</ele>
        <time>2010-08-28T08:50:36Z</time>
      </trkpt>
      <trkpt lat="43.75042" lon="7.25861">
        <ele>473</ele>
        <time>2010-08-28T08:50:40Z</time>
      </trkpt>
      <trkpt lat="43.75052" lon="7.25861">
        <ele>473</ele>
        <time>2010-08-28T08:50:44Z</time>
      </trkpt>
      <trkpt lat="43.7507" lon="7.25862">
        <ele>473</ele>
        <time>2010-08-28T08:50:51Z</time>
      </trkpt>
      <trkpt lat="43.7508" lon="7.25868">
        <ele>474</ele>
        <time>2010-08-28T08:50:56Z</time>
      </trkpt>
      <trkpt lat="43.7509" lon="7.25877">
        <ele>478</ele>
        <time>2010-08-28T08:51:02Z</time>
      </trkpt>
      <trkpt lat="43.751" lon="7.25877">
        <ele>478</ele>
        <time>2010-08-28T08:51:07Z</time>
      </trkpt>
      <trkpt lat="43.7512" lon="7.25876">
        <ele>479</ele>
        <time>2010-08-28T08:51:14Z</time>
      </trkpt>
      <trkpt lat="43.75131" lon="7.25873">
        <ele>479</ele>
        <time>2010-08-28T08:51:18Z</time>
      </trkpt>
      <trkpt lat="43.75137" lon="7.25875">
        <ele>479</ele>
        <time>2010-08-28T08:51:23Z</time>
      </trkpt>
      <trkpt lat="43.7514" lon="7.25874">
        <ele>480</ele>
        <time>2010-08-28T08:51:28Z</time>
      </trkpt>
      <trkpt lat="43.75143" lon="7.25874">
        <ele>480</ele>
        <time>2010-08-28T08:51:30Z</time>
      </trkpt>
      <trkpt lat="43.75147" lon="7.25874">
        <ele>480</ele>
        <time>2010-08-28T08:51:36Z</time>
      </trkpt>
      <trkpt lat="43.75158" lon="7.25873">
        <ele>480</ele>
        <time>2010-08-28T08:51:42Z</time>
      </trkpt>
      <trkpt lat="43.75168" lon="7.25875">
        <ele>485</ele>
        <time>2010-08-28T08:51:48Z</time>
      </trkpt>
      <trkpt lat="43.7517" lon="7.25876">
        <ele>485</ele>
        <time>2010-08-28T08:51:49Z</time>
      </trkpt>
      <trkpt lat="43.75186" lon="7.2587">
        <ele>486</ele>
        <time>2010-08-28T08:51:56Z</time>
      </trkpt>
      <trkpt lat="43.75196" lon="7.25869">
        <ele>486</ele>
        <time>2010-08-28T08:52:00Z</time>
      </trkpt>
      <trkpt lat="43.75216" lon="7.25859">
        <ele>487</ele>
        <time>2010-08-28T08:52:08Z</time>
      </trkpt>
      <trkpt lat="43.75231" lon="7.25856">
        <ele>487</ele>
        <time>2010-08-28T08:52:14Z</time>
      </trkpt>
      <trkpt lat="43.75238" lon="7.25855">
        <ele>487</ele>
        <time>2010-08-28T08:52:17Z</time>
      </trkpt>
      <trkpt lat="43.7525" lon="7.25857">
        <ele>488</ele>
        <time>2010-08-28T08:52:22Z</time>
      </trkpt>
      <trkpt lat="43.75263" lon="7.25846">
        <ele>491</ele>
        <time>2010-08-28T08:52:29Z</time>
      </trkpt>
      <trkpt lat="43.75275" lon="7.25838">
        <ele>492</ele>
        <time>2010-08-28T08:52:34Z</time>
      </trkpt>
      <trkpt lat="43.7528" lon="7.25837">
        <ele>493</ele>
        <time>2010-08-28T08:52:37Z</time>
      </trkpt>
      <trkpt lat="43.75288" lon="7.25832">
        <ele>489</ele>
        <time>2010-08-28T08:52:43Z</time>
      </trkpt>
      <trkpt lat="43.75295" lon="7.25828">
        <ele>489</ele>
        <time>2010-08-28T08:52:48Z</time>
      </trkpt>
      <trkpt lat="43.75299" lon="7.25826">
        <ele>490</ele>
        <time>2010-08-28T08:52:53Z</time>
      </trkpt>
      <trkpt lat="43.75312" lon="7.25817">
        <ele>490</ele>
        <time>2010-08-28T08:52:58Z</time>
      </trkpt>
      <trkpt lat="43.75319" lon="7.25816">
        <ele>491</ele>
        <time>2010-08-28T08:53:00Z</time>
      </trkpt>
      <trkpt lat="43.75332" lon="7.25805">
        <ele>491</ele>
        <time>2010-08-28T08:53:06Z</time>
      </trkpt>
      <trkpt lat="43.75336" lon="7.25795">
        <ele>494</ele>
        <time>2010-08-28T08:53:10Z</time>
      </trkpt>
      <trkpt lat="43.75347" lon="7.25788">
        <ele>494</ele>
        <time>2010-08-28T08:53:15Z</time>
      </trkpt>
      <trkpt lat="43.75349" lon="7.25787">
        <ele>494</ele>
        <time>2010-08-28T08:53:16Z</time>
      </trkpt>
      <trkpt lat="43.75353" lon="7.25784">
        <ele>494</ele>
        <time>2010-08-28T08:53:18Z</time>
      </trkpt>
      <trkpt lat="43.75364" lon="7.25786">
        <ele>494</ele>
        <time>2010-08-28T08:53:24Z</time>
      </trkpt>
      <trkpt lat="43.7537" lon="7.25789">
        <ele>494</ele>
        <time>2010-08-28T08:53:28Z</time>
      </trkpt>
      <trkpt lat="43.75377" lon="7.25797">
        <ele>494</ele>
        <time>2010-08-28T08:53:33Z</time>
      </trkpt>
      <trkpt lat="43.75381" lon="7.25799">
        <ele>495</ele>
        <time>2010-08-28T08:53:36Z</time>
      </trkpt>
      <trkpt lat="43.75391" lon="7.25801">
        <ele>495</ele>
        <time>2010-08-28T08:53:41Z</time>
      </trkpt>
      <trkpt lat="43.75402" lon="7.25807">
        <ele>496</ele>
        <time>2010-08-28T08:53:47Z</time>
      </trkpt>
      <trkpt lat="43.75412" lon="7.25808">
        <ele>496</ele>
        <time>2010-08-28T08:53:51Z</time>
      </trkpt>
      <trkpt lat="43.75422" lon="7.25801">
        <ele>497</ele>
        <time>2010-08-28T08:53:54Z</time>
      </trkpt>
      <trkpt lat="43.75436" lon="7.25802">
        <ele>498</ele>
        <time>2010-08-28T08:53:58Z</time>
      </trkpt>
      <trkpt lat="43.75453" lon="7.25796">
        <ele>498</ele>
        <time>2010-08-28T08:54:04Z</time>
      </trkpt>
      <trkpt lat="43.75465" lon="7.25786">
        <ele>498</ele>
        <time>2010-08-28T08:54:09Z</time>
      </trkpt>
      <trkpt lat="43.75475" lon="7.25783">
        <ele>498</ele>
        <time>2010-08-28T08:54:13Z</time>
      </trkpt>
      <trkpt lat="43.75483" lon="7.25775">
        <ele>499</ele>
        <time>2010-08-28T08:54:17Z</time>
      </trkpt>
      <trkpt lat="43.75488" lon="7.25749">
        <ele>498</ele>
        <time>2010-08-28T08:54:23Z</time>
      </trkpt>
      <trkpt lat="43.75492" lon="7.25736">
        <ele>498</ele>
        <time>2010-08-28T08:54:27Z</time>
      </trkpt>
      <trkpt lat="43.75493" lon="7.25734">
        <ele>498</ele>
        <time>2010-08-28T08:54:31Z</time>
      </trkpt>
      <trkpt lat="43.75497" lon="7.25728">
        <ele>497</ele>
        <time>2010-08-28T08:54:37Z</time>
      </trkpt>
      <trkpt lat="43.75504" lon="7.2572">
        <ele>506</ele>
        <time>2010-08-28T08:54:45Z</time>
      </trkpt>
      <trkpt lat="43.75509" lon="7.25717">
        <ele>507</ele>
        <time>2010-08-28T08:54:50Z</time>
      </trkpt>
      <trkpt lat="43.75516" lon="7.25713">
        <ele>507</ele>
        <time>2010-08-28T08:54:58Z</time>
      </trkpt>
      <trkpt lat="43.75523" lon="7.25708">
        <ele>508</ele>
        <time>2010-08-28T08:55:07Z</time>
      </trkpt>
      <trkpt lat="43.75523" lon="7.25705">
        <ele>508</ele>
        <time>2010-08-28T08:55:09Z</time>
      </trkpt>
      <trkpt lat="43.75527" lon="7.25692">
        <ele>508</ele>
        <time>2010-08-28T08:55:17Z</time>
      </trkpt>
      <trkpt lat="43.75528" lon="7.25686">
        <ele>508</ele>
        <time>2010-08-28T08:55:21Z</time>
      </trkpt>
      <trkpt lat="43.75528" lon="7.25683">
        <ele>508</ele>
        <time>2010-08-28T08:55:28Z</time>
      </trkpt>
      <trkpt lat="43.75529" lon="7.25681">
        <ele>508</ele>
        <time>2010-08-28T08:55:29Z</time>
      </trkpt>
      <trkpt lat="43.75529" lon="7.25666">
        <ele>509</ele>
        <time>2010-08-28T08:55:36Z</time>
      </trkpt>
      <trkpt lat="43.7553" lon="7.25651">
        <ele>509</ele>
        <time>2010-08-28T08:55:42Z</time>
      </trkpt>
      <trkpt lat="43.75531" lon="7.25638">
        <ele>509</ele>
        <time>2010-08-28T08:55:48Z</time>
      </trkpt>
      <trkpt lat="43.75533" lon="7.25632">
        <ele>509</ele>
        <time>2010-08-28T08:55:54Z</time>
      </trkpt>
      <trkpt lat="43.75538" lon="7.2562">
        <ele>509</ele>
        <time>2010-08-28T08:56:01Z</time>
      </trkpt>
      <trkpt lat="43.75546" lon="7.25606">
        <ele>510</ele>
        <time>2010-08-28T08:56:11Z</time>
      </trkpt>
      <trkpt lat="43.7555" lon="7.25598">
        <ele>511</ele>
        <time>2010-08-28T08:56:18Z</time>
      </trkpt>
      <trkpt lat="43.7555" lon="7.25598">
        <ele>511</ele>
        <time>2010-08-28T08:56:20Z</time>
      </trkpt>
      <trkpt lat="43.7556" lon="7.25589">
        <ele>513</ele>
        <time>2010-08-28T08:56:27Z</time>
      </trkpt>
      <trkpt lat="43.75567" lon="7.25584">
        <ele>515</ele>
        <time>2010-08-28T08:56:32Z</time>
      </trkpt>
      <trkpt lat="43.75571" lon="7.25583">
        <ele>512</ele>
        <time>2010-08-28T08:56:36Z</time>
      </trkpt>
      <trkpt lat="43.75584" lon="7.25575">
        <ele>520</ele>
        <time>2010-08-28T08:56:45Z</time>
      </trkpt>
      <trkpt lat="43.75589" lon="7.25574">
        <ele>520</ele>
        <time>2010-08-28T08:56:48Z</time>
      </trkpt>
      <trkpt lat="43.7559" lon="7.25574">
        <ele>520</ele>
        <time>2010-08-28T08:56:51Z</time>
      </trkpt>
      <trkpt lat="43.75594" lon="7.25573">
        <ele>520</ele>
        <time>2010-08-28T08:56:55Z</time>
      </trkpt>
      <trkpt lat="43.75601" lon="7.2557">
        <ele>521</ele>
        <time>2010-08-28T08:57:03Z</time>
      </trkpt>
      <trkpt lat="43.75603" lon="7.2557">
        <ele>521</ele>
        <time>2010-08-28T08:57:10Z</time>
      </trkpt>
      <trkpt lat="43.75607" lon="7.25568">
        <ele>521</ele>
        <time>2010-08-28T08:57:20Z</time>
      </trkpt>
      <trkpt lat="43.75608" lon="7.25568">
        <ele>521</ele>
        <time>2010-08-28T08:57:21Z</time>
      </trkpt>
      <trkpt lat="43.75616" lon="7.25562">
        <ele>522</ele>
        <time>2010-08-28T08:57:29Z</time>
      </trkpt>
      <trkpt lat="43.75621" lon="7.25559">
        <ele>522</ele>
        <time>2010-08-28T08:57:34Z</time>
      </trkpt>
      <trkpt lat="43.75628" lon="7.25554">
        <ele>523</ele>
        <time>2010-08-28T08:57:40Z</time>
      </trkpt>
      <trkpt lat="43.75635" lon="7.2555">
        <ele>523</ele>
        <time>2010-08-28T08:57:46Z</time>
      </trkpt>
      <trkpt lat="43.75641" lon="7.25544">
        <ele>523</ele>
        <time>2010-08-28T08:57:52Z</time>
      </trkpt>
      <trkpt lat="43.75649" lon="7.25538">
        <ele>523</ele>
        <time>2010-08-28T08:57:58Z</time>
      </trkpt>
      <trkpt lat="43.75656" lon="7.25537">
        <ele>524</ele>
        <time>2010-08-28T08:58:04Z</time>
      </trkpt>
      <trkpt lat="43.75658" lon="7.25537">
        <ele>524</ele>
        <time>2010-08-28T08:58:06Z</time>
      </trkpt>
      <trkpt lat="43.75666" lon="7.25534">
        <ele>524</ele>
        <time>2010-08-28T08:58:14Z</time>
      </trkpt>
      <trkpt lat="43.75674" lon="7.2553">
        <ele>534</ele>
        <time>2010-08-28T08:58:21Z</time>
      </trkpt>
      <trkpt lat="43.75678" lon="7.25527">
        <ele>534</ele>
        <time>2010-08-28T08:58:25Z</time>
      </trkpt>
      <trkpt lat="43.75681" lon="7.25524">
        <ele>534</ele>
        <time>2010-08-28T08:58:31Z</time>
      </trkpt>
      <trkpt lat="43.75685" lon="7.25521">
        <ele>534</ele>
        <time>2010-08-28T08:58:37Z</time>
      </trkpt>
      <trkpt lat="43.75697" lon="7.25517">
        <ele>535</ele>
        <time>2010-08-28T08:58:44Z</time>
      </trkpt>
      <trkpt lat="43.757" lon="7.25517">
        <ele>536</ele>
        <time>2010-08-28T08:58:49Z</time>
      </trkpt>
      <trkpt lat="43.75704" lon="7.25517">
        <ele>537</ele>
        <time>2010-08-28T08:58:54Z</time>
      </trkpt>
      <trkpt lat="43.75711" lon="7.25512">
        <ele>537</ele>
        <time>2010-08-28T08:59:00Z</time>
      </trkpt>
      <trkpt lat="43.75712" lon="7.25511">
        <ele>537</ele>
        <time>2010-08-28T08:59:01Z</time>
      </trkpt>
      <trkpt lat="43.75724" lon="7.25505">
        <ele>539</ele>
        <time>2010-08-28T08:59:08Z</time>
      </trkpt>
      <trkpt lat="43.75733" lon="7.25499">
        <ele>531</ele>
        <time>2010-08-28T08:59:14Z</time>
      </trkpt>
      <trkpt lat="43.75736" lon="7.25498">
        <ele>532</ele>
        <time>2010-08-28T08:59:16Z</time>
      </trkpt>
      <trkpt lat="43.75738" lon="7.25497">
        <ele>533</ele>
        <time>2010-08-28T08:59:21Z</time>
      </trkpt>
      <trkpt lat="43.75745" lon="7.25496">
        <ele>537</ele>
        <time>2010-08-28T08:59:28Z</time>
      </trkpt>
      <trkpt lat="43.75754" lon="7.25492">
        <ele>542</ele>
        <time>2010-08-28T08:59:36Z</time>
      </trkpt>
      <trkpt lat="43.75765" lon="7.25485">
        <ele>542</ele>
        <time>2010-08-28T08:59:45Z</time>
      </trkpt>
      <trkpt lat="43.75776" lon="7.25476">
        <ele>543</ele>
        <time>2010-08-28T08:59:54Z</time>
      </trkpt>
      <trkpt lat="43.75784" lon="7.25469">
        <ele>543</ele>
        <time>2010-08-28T09:00:01Z</time>
      </trkpt>
      <trkpt lat="43.75786" lon="7.25467">
        <ele>543</ele>
        <time>2010-08-28T09:00:03Z</time>
      </trkpt>
      <trkpt lat="43.7579" lon="7.25466">
        <ele>544</ele>
        <time>2010-08-28T09:00:07Z</time>
      </trkpt>
      <trkpt lat="43.75795" lon="7.25461">
        <ele>544</ele>
        <time>2010-08-28T09:00:12Z</time>
      </trkpt>
      <trkpt lat="43.75807" lon="7.25454">
        <ele>545</ele>
        <time>2010-08-28T09:00:22Z</time>
      </trkpt>
      <trkpt lat="43.75813" lon="7.2545">
        <ele>545</ele>
        <time>2010-08-28T09:00:28Z</time>
      </trkpt>
      <trkpt lat="43.7582" lon="7.25447">
        <ele>546</ele>
        <time>2010-08-28T09:00:35Z</time>
      </trkpt>
      <trkpt lat="43.75828" lon="7.25439">
        <ele>546</ele>
        <time>2010-08-28T09:00:43Z</time>
      </trkpt>
      <trkpt lat="43.75831" lon="7.25437">
        <ele>546</ele>
        <time>2010-08-28T09:00:49Z</time>
      </trkpt>
      <trkpt lat="43.75837" lon="7.25435">
        <ele>556</ele>
        <time>2010-08-28T09:00:55Z</time>
      </trkpt>
      <trkpt lat="43.7584" lon="7.25433">
        <ele>556</ele>
        <time>2010-08-28T09:00:58Z</time>
      </trkpt>
      <trkpt lat="43.75846" lon="7.25432">
        <ele>556</ele>
        <time>2010-08-28T09:01:05Z</time>
      </trkpt>
      <trkpt lat="43.75852" lon="7.25429">
        <ele>557</ele>
        <time>2010-08-28T09:01:12Z</time>
      </trkpt>
      <trkpt lat="43.75857" lon="7.25427">
        <ele>558</ele>
        <time>2010-08-28T09:01:18Z</time>
      </trkpt>
      <trkpt lat="43.75863" lon="7.25426">
        <ele>559</ele>
        <time>2010-08-28T09:01:24Z</time>
      </trkpt>
      <trkpt lat="43.75867" lon="7.25422">
        <ele>560</ele>
        <time>2010-08-28T09:01:29Z</time>
      </trkpt>
      <trkpt lat="43.75876" lon="7.25416">
        <ele>551</ele>
        <time>2010-08-28T09:01:35Z</time>
      </trkpt>
      <trkpt lat="43.7589" lon="7.25403">
        <ele>553</ele>
        <time>2010-08-28T09:01:41Z</time>
      </trkpt>
      <trkpt lat="43.75895" lon="7.25398">
        <ele>553</ele>
        <time>2010-08-28T09:01:44Z</time>
      </trkpt>
      <trkpt lat="43.75895" lon="7.25397">
        <ele>553</ele>
        <time>2010-08-28T09:01:53Z</time>
      </trkpt>
      <trkpt lat="43.75895" lon="7.25398">
        <ele>553</ele>
        <time>2010-08-28T09:02:08Z</time>
      </trkpt>
      <trkpt lat="43.75894" lon="7.25397">
        <ele>553</ele>
        <time>2010-08-28T09:02:19Z</time>
      </trkpt>
      <trkpt lat="43.75895" lon="7.25398">
        <ele>553</ele>
        <time>2010-08-28T09:02:42Z</time>
      </trkpt>
      <trkpt lat="43.75896" lon="7.25396">
        <ele>553</ele>
        <time>2010-08-28T09:02:47Z</time>
      </trkpt>
      <trkpt lat="43.75899" lon="7.25393">
        <ele>552</ele>
        <time>2010-08-28T09:02:52Z</time>
      </trkpt>
      <trkpt lat="43.75899" lon="7.25392">
        <ele>552</ele>
        <time>2010-08-28T09:03:01Z</time>
      </trkpt>
      <trkpt lat="43.75897" lon="7.25393">
        <ele>552</ele>
        <time>2010-08-28T09:03:04Z</time>
      </trkpt>
      <trkpt lat="43.75888" lon="7.25392">
        <ele>550</ele>
        <time>2010-08-28T09:03:09Z</time>
      </trkpt>
      <trkpt lat="43.75876" lon="7.25401">
        <ele>550</ele>
        <time>2010-08-28T09:03:13Z</time>
      </trkpt>
      <trkpt lat="43.75861" lon="7.25405">
        <ele>548</ele>
        <time>2010-08-28T09:03:17Z</time>
      </trkpt>
      <trkpt lat="43.75853" lon="7.2541">
        <ele>548</ele>
        <time>2010-08-28T09:03:19Z</time>
      </trkpt>
      <trkpt lat="43.7584" lon="7.25417">
        <ele>552</ele>
        <time>2010-08-28T09:03:23Z</time>
      </trkpt>
      <trkpt lat="43.75822" lon="7.25419">
        <ele>546</ele>
        <time>2010-08-28T09:03:28Z</time>
      </trkpt>
      <trkpt lat="43.75815" lon="7.25416">
        <ele>535</ele>
        <time>2010-08-28T09:03:31Z</time>
      </trkpt>
      <trkpt lat="43.7581" lon="7.25409">
        <ele>532</ele>
        <time>2010-08-28T09:03:34Z</time>
      </trkpt>
      <trkpt lat="43.75808" lon="7.25407">
        <ele>532</ele>
        <time>2010-08-28T09:03:35Z</time>
      </trkpt>
      <trkpt lat="43.75805" lon="7.25401">
        <ele>530</ele>
        <time>2010-08-28T09:03:37Z</time>
      </trkpt>
      <trkpt lat="43.75796" lon="7.25395">
        <ele>527</ele>
        <time>2010-08-28T09:03:41Z</time>
      </trkpt>
      <trkpt lat="43.75781" lon="7.25399">
        <ele>525</ele>
        <time>2010-08-28T09:03:46Z</time>
      </trkpt>
      <trkpt lat="43.75778" lon="7.254">
        <ele>524</ele>
        <time>2010-08-28T09:03:47Z</time>
      </trkpt>
      <trkpt lat="43.75766" lon="7.25405">
        <ele>523</ele>
        <time>2010-08-28T09:03:52Z</time>
      </trkpt>
      <trkpt lat="43.7575" lon="7.25415">
        <ele>520</ele>
        <time>2010-08-28T09:03:56Z</time>
      </trkpt>
      <trkpt lat="43.75743" lon="7.25419">
        <ele>522</ele>
        <time>2010-08-28T09:03:58Z</time>
      </trkpt>
      <trkpt lat="43.75738" lon="7.2542">
        <ele>521</ele>
        <time>2010-08-28T09:04:00Z</time>
      </trkpt>
      <trkpt lat="43.75734" lon="7.25417">
        <ele>512</ele>
        <time>2010-08-28T09:04:03Z</time>
      </trkpt>
      <trkpt lat="43.75745" lon="7.25402">
        <ele>512</ele>
        <time>2010-08-28T09:04:08Z</time>
      </trkpt>
      <trkpt lat="43.75754" lon="7.25392">
        <ele>521</ele>
        <time>2010-08-28T09:04:12Z</time>
      </trkpt>
      <trkpt lat="43.75755" lon="7.25391">
        <ele>521</ele>
        <time>2010-08-28T09:04:13Z</time>
      </trkpt>
      <trkpt lat="43.75759" lon="7.25386">
        <ele>521</ele>
        <time>2010-08-28T09:04:16Z</time>
      </trkpt>
      <trkpt lat="43.75756" lon="7.25379">
        <ele>520</ele>
        <time>2010-08-28T09:04:20Z</time>
      </trkpt>
      <trkpt lat="43.75748" lon="7.25383">
        <ele>505</ele>
        <time>2010-08-28T09:04:23Z</time>
      </trkpt>
      <trkpt lat="43.75747" lon="7.25374">
        <ele>503</ele>
        <time>2010-08-28T09:04:26Z</time>
      </trkpt>
      <trkpt lat="43.7575" lon="7.25365">
        <ele>502</ele>
        <time>2010-08-28T09:04:28Z</time>
      </trkpt>
      <trkpt lat="43.75759" lon="7.25348">
        <ele>512</ele>
        <time>2010-08-28T09:04:33Z</time>
      </trkpt>
      <trkpt lat="43.7576" lon="7.25343">
        <ele>510</ele>
        <time>2010-08-28T09:04:36Z</time>
      </trkpt>
      <trkpt lat="43.75755" lon="7.25337">
        <ele>505</ele>
        <time>2010-08-28T09:04:40Z</time>
      </trkpt>
      <trkpt lat="43.75752" lon="7.25334">
        <ele>502</ele>
        <time>2010-08-28T09:04:44Z</time>
      </trkpt>
      <trkpt lat="43.75754" lon="7.25326">
        <ele>500</ele>
        <time>2010-08-28T09:04:48Z</time>
      </trkpt>
      <trkpt lat="43.75765" lon="7.25307">
        <ele>498</ele>
        <time>2010-08-28T09:04:54Z</time>
      </trkpt>
      <trkpt lat="43.75764" lon="7.25298">
        <ele>496</ele>
        <time>2010-08-28T09:04:59Z</time>
      </trkpt>
      <trkpt lat="43.75758" lon="7.25301">
        <ele>497</ele>
        <time>2010-08-28T09:05:02Z</time>
      </trkpt>
      <trkpt lat="43.75752" lon="7.25299">
        <ele>496</ele>
        <time>2010-08-28T09:05:05Z</time>
      </trkpt>
      <trkpt lat="43.75754" lon="7.25287">
        <ele>493</ele>
        <time>2010-08-28T09:05:08Z</time>
      </trkpt>
      <trkpt lat="43.75758" lon="7.25278">
        <ele>491</ele>
        <time>2010-08-28T09:05:11Z</time>
      </trkpt>
      <trkpt lat="43.75769" lon="7.25263">
        <ele>489</ele>
        <time>2010-08-28T09:05:16Z</time>
      </trkpt>
      <trkpt lat="43.75783" lon="7.25246">
        <ele>476</ele>
        <time>2010-08-28T09:05:21Z</time>
      </trkpt>
      <trkpt lat="43.75784" lon="7.25244">
        <ele>476</ele>
        <time>2010-08-28T09:05:22Z</time>
      </trkpt>
      <trkpt lat="43.75781" lon="7.25234">
        <ele>475</ele>
        <time>2010-08-28T09:05:26Z</time>
      </trkpt>
      <trkpt lat="43.75778" lon="7.25233">
        <ele>474</ele>
        <time>2010-08-28T09:05:29Z</time>
      </trkpt>
      <trkpt lat="43.75773" lon="7.25228">
        <ele>474</ele>
        <time>2010-08-28T09:05:33Z</time>
      </trkpt>
      <trkpt lat="43.75773" lon="7.25228">
        <ele>473</ele>
        <time>2010-08-28T09:05:36Z</time>
      </trkpt>
      <trkpt lat="43.75767" lon="7.25225">
        <ele>473</ele>
        <time>2010-08-28T09:05:40Z</time>
      </trkpt>
      <trkpt lat="43.75767" lon="7.25224">
        <ele>473</ele>
        <time>2010-08-28T09:05:45Z</time>
      </trkpt>
      <trkpt lat="43.75767" lon="7.25224">
        <ele>473</ele>
        <time>2010-08-28T09:05:52Z</time>
      </trkpt>
      <trkpt lat="43.75769" lon="7.25224">
        <ele>473</ele>
        <time>2010-08-28T09:05:56Z</time>
      </trkpt>
      <trkpt lat="43.75768" lon="7.25226">
        <ele>473</ele>
        <time>2010-08-28T09:06:05Z</time>
      </trkpt>
      <trkpt lat="43.75767" lon="7.25226">
        <ele>473</ele>
        <time>2010-08-28T09:06:11Z</time>
      </trkpt>
      <trkpt lat="43.75767" lon="7.25226">
        <ele>473</ele>
        <time>2010-08-28T09:06:24Z</time>
      </trkpt>
      <trkpt lat="43.75768" lon="7.25226">
        <ele>473</ele>
        <time>2010-08-28T09:06:31Z</time>
      </trkpt>
      <trkpt lat="43.75767" lon="7.25225">
        <ele>473</ele>
        <time>2010-08-28T09:06:41Z</time>
      </trkpt>
      <trkpt lat="43.75768" lon="7.25226">
        <ele>473</ele>
        <time>2010-08-28T09:06:46Z</time>
      </trkpt>
      <trkpt lat="43.75768" lon="7.25226">
        <ele>473</ele>
        <time>2010-08-28T09:06:57Z</time>
      </trkpt>
      <trkpt lat="43.75768" lon="7.25226">
        <ele>473</ele>
        <time>2010-08-28T09:07:04Z</time>
      </trkpt>
      <trkpt lat="43.75768" lon="7.25226">
        <ele>473</ele>
        <time>2010-08-28T09:07:10Z</time>
      </trkpt>
      <trkpt lat="43.75767" lon="7.25226">
        <ele>473</ele>
        <time>2010-08-28T09:07:15Z</time>
      </trkpt>
      <trkpt lat="43.75767" lon="7.25226">
        <ele>473</ele>
        <time>2010-08-28T09:07:25Z</time>
      </trkpt>
      <trkpt lat="43.75767" lon="7.25225">
        <ele>473</ele>
        <time>2010-08-28T09:07:30Z</time>
      </trkpt>
      <trkpt lat="43.75767" lon="7.25225">
        <ele>473</ele>
        <time>2010-08-28T09:07:36Z</time>
      </trkpt>
      <trkpt lat="43.75767" lon="7.25225">
        <ele>473</ele>
        <time>2010-08-28T09:07:48Z</time>
      </trkpt>
      <trkpt lat="43.75766" lon="7.25225">
        <ele>473</ele>
        <time>2010-08-28T09:07:55Z</time>
      </trkpt>
      <trkpt lat="43.75761" lon="7.25223">
        <ele>472</ele>
        <time>2010-08-28T09:07:59Z</time>
      </trkpt>
      <trkpt lat="43.75756" lon="7.25221">
        <ele>472</ele>
        <time>2010-08-28T09:08:05Z</time>
      </trkpt>
      <trkpt lat="43.75754" lon="7.25222">
        <ele>472</ele>
        <time>2010-08-28T09:08:08Z</time>
      </trkpt>
      <trkpt lat="43.75743" lon="7.2522">
        <ele>460</ele>
        <time>2010-08-28T09:08:12Z</time>
      </trkpt>
      <trkpt lat="43.75735" lon="7.25221">
        <ele>459</ele>
        <time>2010-08-28T09:08:15Z</time>
      </trkpt>
      <trkpt lat="43.75723" lon="7.25219">
        <ele>458</ele>
        <time>2010-08-28T09:08:18Z</time>
      </trkpt>
      <trkpt lat="43.7571" lon="7.25228">
        <ele>457</ele>
        <time>2010-08-28T09:08:21Z</time>
      </trkpt>
      <trkpt lat="43.75707" lon="7.25231">
        <ele>457</ele>
        <time>2010-08-28T09:08:22Z</time>
      </trkpt>
      <trkpt lat="43.75705" lon="7.25232">
        <ele>456</ele>
        <time>2010-08-28T09:08:25Z</time>
      </trkpt>
      <trkpt lat="43.75695" lon="7.25231">
        <ele>455</ele>
        <time>2010-08-28T09:08:29Z</time>
      </trkpt>
      <trkpt lat="43.7569" lon="7.25231">
        <ele>455</ele>
        <time>2010-08-28T09:08:32Z</time>
      </trkpt>
      <trkpt lat="43.75687" lon="7.25231">
        <ele>455</ele>
        <time>2010-08-28T09:08:36Z</time>
      </trkpt>
      <trkpt lat="43.75682" lon="7.25233">
        <ele>454</ele>
        <time>2010-08-28T09:08:40Z</time>
      </trkpt>
      <trkpt lat="43.75682" lon="7.25232">
        <ele>454</ele>
        <time>2010-08-28T09:08:41Z</time>
      </trkpt>
      <trkpt lat="43.75677" lon="7.25228">
        <ele>454</ele>
        <time>2010-08-28T09:08:45Z</time>
      </trkpt>
      <trkpt lat="43.7567" lon="7.25227">
        <ele>453</ele>
        <time>2010-08-28T09:08:50Z</time>
      </trkpt>
      <trkpt lat="43.75667" lon="7.25226">
        <ele>446</ele>
        <time>2010-08-28T09:08:52Z</time>
      </trkpt>
      <trkpt lat="43.75664" lon="7.25227">
        <ele>446</ele>
        <time>2010-08-28T09:08:56Z</time>
      </trkpt>
      <trkpt lat="43.75659" lon="7.25222">
        <ele>445</ele>
        <time>2010-08-28T09:09:01Z</time>
      </trkpt>
      <trkpt lat="43.75658" lon="7.25214">
        <ele>443</ele>
        <time>2010-08-28T09:09:06Z</time>
      </trkpt>
      <trkpt lat="43.7566" lon="7.25208">
        <ele>442</ele>
        <time>2010-08-28T09:09:10Z</time>
      </trkpt>
      <trkpt lat="43.7566" lon="7.25205">
        <ele>442</ele>
        <time>2010-08-28T09:09:12Z</time>
      </trkpt>
      <trkpt lat="43.75661" lon="7.25193">
        <ele>441</ele>
        <time>2010-08-28T09:09:18Z</time>
      </trkpt>
      <trkpt lat="43.75665" lon="7.25188">
        <ele>440</ele>
        <time>2010-08-28T09:09:22Z</time>
      </trkpt>
      <trkpt lat="43.75667" lon="7.25187">
        <ele>447</ele>
        <time>2010-08-28T09:09:23Z</time>
      </trkpt>
      <trkpt lat="43.75673" lon="7.25184">
        <ele>446</ele>
        <time>2010-08-28T09:09:26Z</time>
      </trkpt>
      <trkpt lat="43.75668" lon="7.25171">
        <ele>441</ele>
        <time>2010-08-28T09:09:30Z</time>
      </trkpt>
      <trkpt lat="43.75653" lon="7.25167">
        <ele>439</ele>
        <time>2010-08-28T09:09:34Z</time>
      </trkpt>
      <trkpt lat="43.75644" lon="7.25157">
        <ele>432</ele>
        <time>2010-08-28T09:09:37Z</time>
      </trkpt>
      <trkpt lat="43.75631" lon="7.2515">
        <ele>430</ele>
        <time>2010-08-28T09:09:40Z</time>
      </trkpt>
      <trkpt lat="43.75613" lon="7.25156">
        <ele>429</ele>
        <time>2010-08-28T09:09:45Z</time>
      </trkpt>
      <trkpt lat="43.75602" lon="7.25165">
        <ele>429</ele>
        <time>2010-08-28T09:09:50Z</time>
      </trkpt>
      <trkpt lat="43.75597" lon="7.25172">
        <ele>434</ele>
        <time>2010-08-28T09:09:53Z</time>
      </trkpt>
      <trkpt lat="43.75583" lon="7.25177">
        <ele>430</ele>
        <time>2010-08-28T09:09:58Z</time>
      </trkpt>
      <trkpt lat="43.75574" lon="7.25181">
        <ele>430</ele>
        <time>2010-08-28T09:10:02Z</time>
      </trkpt>
      <trkpt lat="43.75558" lon="7.25187">
        <ele>431</ele>
        <time>2010-08-28T09:10:08Z</time>
      </trkpt>
      <trkpt lat="43.75543" lon="7.25183">
        <ele>431</ele>
        <time>2010-08-28T09:10:13Z</time>
      </trkpt>
      <trkpt lat="43.75539" lon="7.25191">
        <ele>431</ele>
        <time>2010-08-28T09:10:16Z</time>
      </trkpt>
      <trkpt lat="43.75533" lon="7.25204">
        <ele>432</ele>
        <time>2010-08-28T09:10:20Z</time>
      </trkpt>
      <trkpt lat="43.75522" lon="7.25221">
        <ele>432</ele>
        <time>2010-08-28T09:10:26Z</time>
      </trkpt>
      <trkpt lat="43.75512" lon="7.25234">
        <ele>432</ele>
        <time>2010-08-28T09:10:31Z</time>
      </trkpt>
      <trkpt lat="43.75502" lon="7.2525">
        <ele>433</ele>
        <time>2010-08-28T09:10:37Z</time>
      </trkpt>
      <trkpt lat="43.75492" lon="7.2526">
        <ele>433</ele>
        <time>2010-08-28T09:10:43Z</time>
      </trkpt>
      <trkpt lat="43.75492" lon="7.2526">
        <ele>433</ele>
        <time>2010-08-28T09:10:48Z</time>
      </trkpt>
      <trkpt lat="43.75492" lon="7.2526">
        <ele>433</ele>
        <time>2010-08-28T09:10:58Z</time>
      </trkpt>
      <trkpt lat="43.75492" lon="7.2526">
        <ele>433</ele>
        <time>2010-08-28T09:11:05Z</time>
      </trkpt>
      <trkpt lat="43.75492" lon="7.2526">
        <ele>433</ele>
        <time>2010-08-28T09:11:12Z</time>
      </trkpt>
      <trkpt lat="43.75493" lon="7.25258">
        <ele>433</ele>
        <time>2010-08-28T09:11:31Z</time>
      </trkpt>
      <trkpt lat="43.75489" lon="7.25248">
        <ele>431</ele>
        <time>2010-08-28T09:11:35Z</time>
      </trkpt>
      <trkpt lat="43.75489" lon="7.25243">
        <ele>431</ele>
        <time>2010-08-28T09:11:36Z</time>
      </trkpt>
      <trkpt lat="43.75483" lon="7.25224">
        <ele>430</ele>
        <time>2010-08-28T09:11:41Z</time>
      </trkpt>
      <trkpt lat="43.75471" lon="7.25227">
        <ele>429</ele>
        <time>2010-08-28T09:11:44Z</time>
      </trkpt>
      <trkpt lat="43.75458" lon="7.25226">
        <ele>429</ele>
        <time>2010-08-28T09:11:47Z</time>
      </trkpt>
      <trkpt lat="43.75427" lon="7.25226">
        <ele>429</ele>
        <time>2010-08-28T09:11:54Z</time>
      </trkpt>
      <trkpt lat="43.75404" lon="7.25239">
        <ele>429</ele>
        <time>2010-08-28T09:12:00Z</time>
      </trkpt>
      <trkpt lat="43.75387" lon="7.25255">
        <ele>429</ele>
        <time>2010-08-28T09:12:05Z</time>
      </trkpt>
      <trkpt lat="43.75375" lon="7.25277">
        <ele>430</ele>
        <time>2010-08-28T09:12:10Z</time>
      </trkpt>
      <trkpt lat="43.75373" lon="7.25282">
        <ele>430</ele>
        <time>2010-08-28T09:12:11Z</time>
      </trkpt>
      <trkpt lat="43.75358" lon="7.25295">
        <ele>430</ele>
        <time>2010-08-28T09:12:15Z</time>
      </trkpt>
      <trkpt lat="43.75349" lon="7.25299">
        <ele>429</ele>
        <time>2010-08-28T09:12:17Z</time>
      </trkpt>
      <trkpt lat="43.75333" lon="7.25299">
        <ele>429</ele>
        <time>2010-08-28T09:12:21Z</time>
      </trkpt>
      <trkpt lat="43.75327" lon="7.25301">
        <ele>428</ele>
        <time>2010-08-28T09:12:23Z</time>
      </trkpt>
      <trkpt lat="43.75311" lon="7.25308">
        <ele>428</ele>
        <time>2010-08-28T09:12:27Z</time>
      </trkpt>
      <trkpt lat="43.75293" lon="7.25304">
        <ele>427</ele>
        <time>2010-08-28T09:12:31Z</time>
      </trkpt>
      <trkpt lat="43.75278" lon="7.25301">
        <ele>427</ele>
        <time>2010-08-28T09:12:34Z</time>
      </trkpt>
      <trkpt lat="43.75259" lon="7.25296">
        <ele>427</ele>
        <time>2010-08-28T09:12:38Z</time>
      </trkpt>
      <trkpt lat="43.75247" lon="7.253">
        <ele>425</ele>
        <time>2010-08-28T09:12:41Z</time>
      </trkpt>
      <trkpt lat="43.75235" lon="7.25313">
        <ele>425</ele>
        <time>2010-08-28T09:12:45Z</time>
      </trkpt>
      <trkpt lat="43.7523" lon="7.25336">
        <ele>425</ele>
        <time>2010-08-28T09:12:50Z</time>
      </trkpt>
      <trkpt lat="43.75221" lon="7.25344">
        <ele>425</ele>
        <time>2010-08-28T09:12:54Z</time>
      </trkpt>
      <trkpt lat="43.75204" lon="7.25352">
        <ele>424</ele>
        <time>2010-08-28T09:12:59Z</time>
      </trkpt>
      <trkpt lat="43.75184" lon="7.25365">
        <ele>424</ele>
        <time>2010-08-28T09:13:04Z</time>
      </trkpt>
      <trkpt lat="43.75174" lon="7.25374">
        <ele>423</ele>
        <time>2010-08-28T09:13:07Z</time>
      </trkpt>
      <trkpt lat="43.75159" lon="7.25393">
        <ele>418</ele>
        <time>2010-08-28T09:13:11Z</time>
      </trkpt>
      <trkpt lat="43.75147" lon="7.25411">
        <ele>418</ele>
        <time>2010-08-28T09:13:14Z</time>
      </trkpt>
      <trkpt lat="43.75133" lon="7.25437">
        <ele>416</ele>
        <time>2010-08-28T09:13:18Z</time>
      </trkpt>
      <trkpt lat="43.75124" lon="7.2546">
        <ele>416</ele>
        <time>2010-08-28T09:13:22Z</time>
      </trkpt>
      <trkpt lat="43.75117" lon="7.25478">
        <ele>415</ele>
        <time>2010-08-28T09:13:25Z</time>
      </trkpt>
      <trkpt lat="43.75105" lon="7.25515">
        <ele>418</ele>
        <time>2010-08-28T09:13:31Z</time>
      </trkpt>
      <trkpt lat="43.75089" lon="7.25523">
        <ele>418</ele>
        <time>2010-08-28T09:13:35Z</time>
      </trkpt>
      <trkpt lat="43.75081" lon="7.25525">
        <ele>412</ele>
        <time>2010-08-28T09:13:38Z</time>
      </trkpt>
      <trkpt lat="43.75067" lon="7.25528">
        <ele>412</ele>
        <time>2010-08-28T09:13:42Z</time>
      </trkpt>
      <trkpt lat="43.75057" lon="7.25527">
        <ele>412</ele>
        <time>2010-08-28T09:13:45Z</time>
      </trkpt>
      <trkpt lat="43.75047" lon="7.25531">
        <ele>411</ele>
        <time>2010-08-28T09:13:48Z</time>
      </trkpt>
      <trkpt lat="43.75025" lon="7.25537">
        <ele>411</ele>
        <time>2010-08-28T09:13:53Z</time>
      </trkpt>
      <trkpt lat="43.75016" lon="7.25538">
        <ele>411</ele>
        <time>2010-08-28T09:13:55Z</time>
      </trkpt>
      <trkpt lat="43.74997" lon="7.25544">
        <ele>407</ele>
        <time>2010-08-28T09:13:59Z</time>
      </trkpt>
      <trkpt lat="43.74974" lon="7.25548">
        <ele>407</ele>
        <time>2010-08-28T09:14:04Z</time>
      </trkpt>
      <trkpt lat="43.74969" lon="7.25548">
        <ele>407</ele>
        <time>2010-08-28T09:14:05Z</time>
      </trkpt>
      <trkpt lat="43.74948" lon="7.25554">
        <ele>407</ele>
        <time>2010-08-28T09:14:11Z</time>
      </trkpt>
      <trkpt lat="43.74944" lon="7.25554">
        <ele>407</ele>
        <time>2010-08-28T09:14:12Z</time>
      </trkpt>
      <trkpt lat="43.74937" lon="7.25552">
        <ele>407</ele>
        <time>2010-08-28T09:14:14Z</time>
      </trkpt>
      <trkpt lat="43.74926" lon="7.25556">
        <ele>408</ele>
        <time>2010-08-28T09:14:18Z</time>
      </trkpt>
      <trkpt lat="43.74912" lon="7.25558">
        <ele>407</ele>
        <time>2010-08-28T09:14:22Z</time>
      </trkpt>
      <trkpt lat="43.74892" lon="7.25561">
        <ele>407</ele>
        <time>2010-08-28T09:14:27Z</time>
      </trkpt>
      <trkpt lat="43.74875" lon="7.25564">
        <ele>406</ele>
        <time>2010-08-28T09:14:32Z</time>
      </trkpt>
      <trkpt lat="43.74863" lon="7.25562">
        <ele>406</ele>
        <time>2010-08-28T09:14:35Z</time>
      </trkpt>
      <trkpt lat="43.74845" lon="7.25563">
        <ele>407</ele>
        <time>2010-08-28T09:14:39Z</time>
      </trkpt>
      <trkpt lat="43.74829" lon="7.25565">
        <ele>406</ele>
        <time>2010-08-28T09:14:43Z</time>
      </trkpt>
      <trkpt lat="43.74822" lon="7.25566">
        <ele>406</ele>
        <time>2010-08-28T09:14:45Z</time>
      </trkpt>
      <trkpt lat="43.74816" lon="7.25566">
        <ele>405</ele>
        <time>2010-08-28T09:14:49Z</time>
      </trkpt>
      <trkpt lat="43.74818" lon="7.25567">
        <ele>406</ele>
        <time>2010-08-28T09:15:46Z</time>
      </trkpt>
      <trkpt lat="43.74816" lon="7.25564">
        <ele>405</ele>
        <time>2010-08-28T09:15:57Z</time>
      </trkpt>
      <trkpt lat="43.74814" lon="7.25564">
        <ele>405</ele>
        <time>2010-08-28T09:15:59Z</time>
      </trkpt>
      <trkpt lat="43.74812" lon="7.25558">
        <ele>404</ele>
        <time>2010-08-28T09:16:06Z</time>
      </trkpt>
      <trkpt lat="43.74812" lon="7.25556">
        <ele>404</ele>
        <time>2010-08-28T09:16:07Z</time>
      </trkpt>
      <trkpt lat="43.74812" lon="7.25534">
        <ele>402</ele>
        <time>2010-08-28T09:16:12Z</time>
      </trkpt>
      <trkpt lat="43.7481" lon="7.25518">
        <ele>401</ele>
        <time>2010-08-28T09:16:15Z</time>
      </trkpt>
      <trkpt lat="43.748" lon="7.25495">
        <ele>393</ele>
        <time>2010-08-28T09:16:20Z</time>
      </trkpt>
      <trkpt lat="43.74794" lon="7.25483">
        <ele>392</ele>
        <time>2010-08-28T09:16:24Z</time>
      </trkpt>
      <trkpt lat="43.74792" lon="7.25468">
        <ele>392</ele>
        <time>2010-08-28T09:16:28Z</time>
      </trkpt>
      <trkpt lat="43.74792" lon="7.25466">
        <ele>391</ele>
        <time>2010-08-28T09:16:29Z</time>
      </trkpt>
      <trkpt lat="43.74792" lon="7.2546">
        <ele>391</ele>
        <time>2010-08-28T09:16:34Z</time>
      </trkpt>
      <trkpt lat="43.74787" lon="7.25447">
        <ele>390</ele>
        <time>2010-08-28T09:16:40Z</time>
      </trkpt>
      <trkpt lat="43.74781" lon="7.25439">
        <ele>389</ele>
        <time>2010-08-28T09:16:45Z</time>
      </trkpt>
      <trkpt lat="43.74776" lon="7.25438">
        <ele>389</ele>
        <time>2010-08-28T09:16:47Z</time>
      </trkpt>
      <trkpt lat="43.74773" lon="7.25432">
        <ele>388</ele>
        <time>2010-08-28T09:16:51Z</time>
      </trkpt>
      <trkpt lat="43.74773" lon="7.25425">
        <ele>388</ele>
        <time>2010-08-28T09:16:53Z</time>
      </trkpt>
      <trkpt lat="43.74777" lon="7.25414">
        <ele>386</ele>
        <time>2010-08-28T09:16:57Z</time>
      </trkpt>
      <trkpt lat="43.74775" lon="7.25403">
        <ele>386</ele>
        <time>2010-08-28T09:17:01Z</time>
      </trkpt>
      <trkpt lat="43.74774" lon="7.25398">
        <ele>386</ele>
        <time>2010-08-28T09:17:05Z</time>
      </trkpt>
      <trkpt lat="43.74774" lon="7.25397">
        <ele>386</ele>
        <time>2010-08-28T09:17:08Z</time>
      </trkpt>
      <trkpt lat="43.74778" lon="7.25393">
        <ele>387</ele>
        <time>2010-08-28T09:17:13Z</time>
      </trkpt>
      <trkpt lat="43.74778" lon="7.25391">
        <ele>387</ele>
        <time>2010-08-28T09:17:16Z</time>
      </trkpt>
      <trkpt lat="43.74774" lon="7.25381">
        <ele>387</ele>
        <time>2010-08-28T09:17:22Z</time>
      </trkpt>
      <trkpt lat="43.74774" lon="7.25376">
        <ele>387</ele>
        <time>2010-08-28T09:17:25Z</time>
      </trkpt>
      <trkpt lat="43.74775" lon="7.25374">
        <ele>387</ele>
        <time>2010-08-28T09:17:27Z</time>
      </trkpt>
      <trkpt lat="43.74772" lon="7.25368">
        <ele>387</ele>
        <time>2010-08-28T09:17:32Z</time>
      </trkpt>
      <trkpt lat="43.74777" lon="7.25367">
        <ele>387</ele>
        <time>2010-08-28T09:17:36Z</time>
      </trkpt>
      <trkpt lat="43.74778" lon="7.25364">
        <ele>387</ele>
        <time>2010-08-28T09:17:40Z</time>
      </trkpt>
      <trkpt lat="43.74773" lon="7.25356">
        <ele>387</ele>
        <time>2010-08-28T09:17:45Z</time>
      </trkpt>
      <trkpt lat="43.74759" lon="7.25343">
        <ele>385</ele>
        <time>2010-08-28T09:17:49Z</time>
      </trkpt>
      <trkpt lat="43.74735" lon="7.25344">
        <ele>381</ele>
        <time>2010-08-28T09:17:54Z</time>
      </trkpt>
      <trkpt lat="43.74726" lon="7.25345">
        <ele>380</ele>
        <time>2010-08-28T09:17:56Z</time>
      </trkpt>
      <trkpt lat="43.74716" lon="7.2535">
        <ele>380</ele>
        <time>2010-08-28T09:17:58Z</time>
      </trkpt>
      <trkpt lat="43.74702" lon="7.25355">
        <ele>379</ele>
        <time>2010-08-28T09:18:02Z</time>
      </trkpt>
      <trkpt lat="43.74681" lon="7.2535">
        <ele>377</ele>
        <time>2010-08-28T09:18:06Z</time>
      </trkpt>
      <trkpt lat="43.74659" lon="7.2533">
        <ele>373</ele>
        <time>2010-08-28T09:18:10Z</time>
      </trkpt>
      <trkpt lat="43.74655" lon="7.25323">
        <ele>374</ele>
        <time>2010-08-28T09:18:11Z</time>
      </trkpt>
      <trkpt lat="43.74638" lon="7.25288">
        <ele>375</ele>
        <time>2010-08-28T09:18:15Z</time>
      </trkpt>
      <trkpt lat="43.74627" lon="7.25267">
        <ele>374</ele>
        <time>2010-08-28T09:18:20Z</time>
      </trkpt>
      <trkpt lat="43.74619" lon="7.25249">
        <ele>368</ele>
        <time>2010-08-28T09:18:25Z</time>
      </trkpt>
      <trkpt lat="43.74618" lon="7.25239">
        <ele>368</ele>
        <time>2010-08-28T09:18:27Z</time>
      </trkpt>
      <trkpt lat="43.74628" lon="7.25227">
        <ele>368</ele>
        <time>2010-08-28T09:18:31Z</time>
      </trkpt>
      <trkpt lat="43.74629" lon="7.25222">
        <ele>368</ele>
        <time>2010-08-28T09:18:33Z</time>
      </trkpt>
      <trkpt lat="43.74633" lon="7.2521">
        <ele>368</ele>
        <time>2010-08-28T09:18:39Z</time>
      </trkpt>
      <trkpt lat="43.74632" lon="7.25208">
        <ele>367</ele>
        <time>2010-08-28T09:18:43Z</time>
      </trkpt>
      <trkpt lat="43.74625" lon="7.2522">
        <ele>367</ele>
        <time>2010-08-28T09:18:50Z</time>
      </trkpt>
      <trkpt lat="43.7462" lon="7.25224">
        <ele>367</ele>
        <time>2010-08-28T09:18:55Z</time>
      </trkpt>
      <trkpt lat="43.74617" lon="7.25227">
        <ele>367</ele>
        <time>2010-08-28T09:19:00Z</time>
      </trkpt>
      <trkpt lat="43.74614" lon="7.25227">
        <ele>367</ele>
        <time>2010-08-28T09:19:06Z</time>
      </trkpt>
      <trkpt lat="43.74615" lon="7.25229">
        <ele>367</ele>
        <time>2010-08-28T09:19:11Z</time>
      </trkpt>
      <trkpt lat="43.74613" lon="7.25229">
        <ele>367</ele>
        <time>2010-08-28T09:19:16Z</time>
      </trkpt>
      <trkpt lat="43.74613" lon="7.25228">
        <ele>367</ele>
        <time>2010-08-28T09:19:19Z</time>
      </trkpt>
      <trkpt lat="43.74608" lon="7.25227">
        <ele>367</ele>
        <time>2010-08-28T09:19:30Z</time>
      </trkpt>
      <trkpt lat="43.7461" lon="7.25229">
        <ele>367</ele>
        <time>2010-08-28T09:19:38Z</time>
      </trkpt>
      <trkpt lat="43.74612" lon="7.25229">
        <ele>367</ele>
        <time>2010-08-28T09:19:48Z</time>
      </trkpt>
      <trkpt lat="43.74613" lon="7.2523">
        <ele>367</ele>
        <time>2010-08-28T09:20:00Z</time>
      </trkpt>
      <trkpt lat="43.74612" lon="7.25225">
        <ele>367</ele>
        <time>2010-08-28T09:20:08Z</time>
      </trkpt>
      <trkpt lat="43.74608" lon="7.25216">
        <ele>366</ele>
        <time>2010-08-28T09:20:13Z</time>
      </trkpt>
      <trkpt lat="43.74603" lon="7.25213">
        <ele>365</ele>
        <time>2010-08-28T09:20:18Z</time>
      </trkpt>
      <trkpt lat="43.74595" lon="7.25199">
        <ele>363</ele>
        <time>2010-08-28T09:20:22Z</time>
      </trkpt>
      <trkpt lat="43.74582" lon="7.25174">
        <ele>354</ele>
        <time>2010-08-28T09:20:26Z</time>
      </trkpt>
      <trkpt lat="43.74573" lon="7.25145">
        <ele>349</ele>
        <time>2010-08-28T09:20:30Z</time>
      </trkpt>
      <trkpt lat="43.74571" lon="7.25134">
        <ele>349</ele>
        <time>2010-08-28T09:20:32Z</time>
      </trkpt>
      <trkpt lat="43.74574" lon="7.25129">
        <ele>348</ele>
        <time>2010-08-28T09:20:36Z</time>
      </trkpt>
      <trkpt lat="43.74573" lon="7.25123">
        <ele>347</ele>
        <time>2010-08-28T09:20:38Z</time>
      </trkpt>
      <trkpt lat="43.74553" lon="7.2509">
        <ele>346</ele>
        <time>2010-08-28T09:20:45Z</time>
      </trkpt>
      <trkpt lat="43.7453" lon="7.25059">
        <ele>336</ele>
        <time>2010-08-28T09:20:51Z</time>
      </trkpt>
      <trkpt lat="43.74519" lon="7.25033">
        <ele>333</ele>
        <time>2010-08-28T09:20:55Z</time>
      </trkpt>
      <trkpt lat="43.7451" lon="7.25006">
        <ele>330</ele>
        <time>2010-08-28T09:20:59Z</time>
      </trkpt>
      <trkpt lat="43.74495" lon="7.2498">
        <ele>326</ele>
        <time>2010-08-28T09:21:03Z</time>
      </trkpt>
      <trkpt lat="43.74445" lon="7.24936">
        <ele>324</ele>
        <time>2010-08-28T09:21:12Z</time>
      </trkpt>
      <trkpt lat="43.74433" lon="7.2493">
        <ele>324</ele>
        <time>2010-08-28T09:21:14Z</time>
      </trkpt>
      <trkpt lat="43.74389" lon="7.24926">
        <ele>325</ele>
        <time>2010-08-28T09:21:21Z</time>
      </trkpt>
      <trkpt lat="43.74337" lon="7.24925">
        <ele>323</ele>
        <time>2010-08-28T09:21:29Z</time>
      </trkpt>
      <trkpt lat="43.74315" lon="7.2494">
        <ele>318</ele>
        <time>2010-08-28T09:21:33Z</time>
      </trkpt>
      <trkpt lat="43.74313" lon="7.24957">
        <ele>318</ele>
        <time>2010-08-28T09:21:35Z</time>
      </trkpt>
      <trkpt lat="43.74316" lon="7.24978">
        <ele>319</ele>
        <time>2010-08-28T09:21:37Z</time>
      </trkpt>
      <trkpt lat="43.74325" lon="7.25022">
        <ele>320</ele>
        <time>2010-08-28T09:21:41Z</time>
      </trkpt>
      <trkpt lat="43.74327" lon="7.25082">
        <ele>324</ele>
        <time>2010-08-28T09:21:46Z</time>
      </trkpt>
      <trkpt lat="43.74313" lon="7.25116">
        <ele>327</ele>
        <time>2010-08-28T09:21:49Z</time>
      </trkpt>
      <trkpt lat="43.74293" lon="7.25119">
        <ele>326</ele>
        <time>2010-08-28T09:21:51Z</time>
      </trkpt>
      <trkpt lat="43.74226" lon="7.25105">
        <ele>316</ele>
        <time>2010-08-28T09:21:58Z</time>
      </trkpt>
      <trkpt lat="43.74168" lon="7.25103">
        <ele>311</ele>
        <time>2010-08-28T09:22:04Z</time>
      </trkpt>
      <trkpt lat="43.7414" lon="7.25115">
        <ele>310</ele>
        <time>2010-08-28T09:22:07Z</time>
      </trkpt>
      <trkpt lat="43.741" lon="7.2512">
        <ele>309</ele>
        <time>2010-08-28T09:22:11Z</time>
      </trkpt>
      <trkpt lat="43.7403" lon="7.25121">
        <ele>301</ele>
        <time>2010-08-28T09:22:18Z</time>
      </trkpt>
      <trkpt lat="43.73972" lon="7.2514">
        <ele>299</ele>
        <time>2010-08-28T09:22:24Z</time>
      </trkpt>
      <trkpt lat="43.73917" lon="7.25162">
        <ele>298</ele>
        <time>2010-08-28T09:22:30Z</time>
      </trkpt>
      <trkpt lat="43.73884" lon="7.25167">
        <ele>292</ele>
        <time>2010-08-28T09:22:34Z</time>
      </trkpt>
      <trkpt lat="43.73875" lon="7.25182">
        <ele>291</ele>
        <time>2010-08-28T09:22:36Z</time>
      </trkpt>
      <trkpt lat="43.73874" lon="7.25207">
        <ele>291</ele>
        <time>2010-08-28T09:22:38Z</time>
      </trkpt>
      <trkpt lat="43.73868" lon="7.25244">
        <ele>291</ele>
        <time>2010-08-28T09:22:41Z</time>
      </trkpt>
      <trkpt lat="43.73847" lon="7.25273">
        <ele>295</ele>
        <time>2010-08-28T09:22:44Z</time>
      </trkpt>
      <trkpt lat="43.73819" lon="7.25287">
        <ele>283</ele>
        <time>2010-08-28T09:22:47Z</time>
      </trkpt>
      <trkpt lat="43.73791" lon="7.25296">
        <ele>281</ele>
        <time>2010-08-28T09:22:50Z</time>
      </trkpt>
      <trkpt lat="43.73778" lon="7.25298">
        <ele>280</ele>
        <time>2010-08-28T09:22:52Z</time>
      </trkpt>
      <trkpt lat="43.73758" lon="7.25316">
        <ele>280</ele>
        <time>2010-08-28T09:22:56Z</time>
      </trkpt>
      <trkpt lat="43.73752" lon="7.25327">
        <ele>280</ele>
        <time>2010-08-28T09:22:58Z</time>
      </trkpt>
      <trkpt lat="43.73747" lon="7.2534">
        <ele>277</ele>
        <time>2010-08-28T09:23:00Z</time>
      </trkpt>
      <trkpt lat="43.73753" lon="7.25371">
        <ele>287</ele>
        <time>2010-08-28T09:23:05Z</time>
      </trkpt>
      <trkpt lat="43.73762" lon="7.25391">
        <ele>286</ele>
        <time>2010-08-28T09:23:09Z</time>
      </trkpt>
      <trkpt lat="43.73788" lon="7.25424">
        <ele>283</ele>
        <time>2010-08-28T09:23:17Z</time>
      </trkpt>
      <trkpt lat="43.73813" lon="7.25453">
        <ele>285</ele>
        <time>2010-08-28T09:23:25Z</time>
      </trkpt>
      <trkpt lat="43.7384" lon="7.25469">
        <ele>299</ele>
        <time>2010-08-28T09:23:33Z</time>
      </trkpt>
      <trkpt lat="43.73862" lon="7.25472">
        <ele>301</ele>
        <time>2010-08-28T09:23:39Z</time>
      </trkpt>
      <trkpt lat="43.73881" lon="7.25482">
        <ele>303</ele>
        <time>2010-08-28T09:23:44Z</time>
      </trkpt>
      <trkpt lat="43.73905" lon="7.25507">
        <ele>297</ele>
        <time>2010-08-28T09:23:51Z</time>
      </trkpt>
      <trkpt lat="43.7392" lon="7.25523">
        <ele>304</ele>
        <time>2010-08-28T09:23:56Z</time>
      </trkpt>
      <trkpt lat="43.73932" lon="7.25535">
        <ele>304</ele>
        <time>2010-08-28T09:24:00Z</time>
      </trkpt>
      <trkpt lat="43.73954" lon="7.2556">
        <ele>303</ele>
        <time>2010-08-28T09:24:07Z</time>
      </trkpt>
      <trkpt lat="43.73968" lon="7.25575">
        <ele>305</ele>
        <time>2010-08-28T09:24:11Z</time>
      </trkpt>
      <trkpt lat="43.73976" lon="7.25594">
        <ele>302</ele>
        <time>2010-08-28T09:24:15Z</time>
      </trkpt>
      <trkpt lat="43.73981" lon="7.25627">
        <ele>302</ele>
        <time>2010-08-28T09:24:22Z</time>
      </trkpt>
      <trkpt lat="43.73985" lon="7.25663">
        <ele>305</ele>
        <time>2010-08-28T09:24:30Z</time>
      </trkpt>
      <trkpt lat="43.73988" lon="7.2569">
        <ele>303</ele>
        <time>2010-08-28T09:24:36Z</time>
      </trkpt>
      <trkpt lat="43.73991" lon="7.2572">
        <ele>302</ele>
        <time>2010-08-28T09:24:42Z</time>
      </trkpt>
      <trkpt lat="43.74" lon="7.25761">
        <ele>311</ele>
        <time>2010-08-28T09:24:50Z</time>
      </trkpt>
      <trkpt lat="43.74012" lon="7.25787">
        <ele>313</ele>
        <time>2010-08-28T09:24:56Z</time>
      </trkpt>
      <trkpt lat="43.74031" lon="7.25815">
        <ele>314</ele>
        <time>2010-08-28T09:25:03Z</time>
      </trkpt>
      <trkpt lat="43.74051" lon="7.25838">
        <ele>311</ele>
        <time>2010-08-28T09:25:10Z</time>
      </trkpt>
      <trkpt lat="43.74069" lon="7.25854">
        <ele>312</ele>
        <time>2010-08-28T09:25:16Z</time>
      </trkpt>
      <trkpt lat="43.74094" lon="7.2588">
        <ele>319</ele>
        <time>2010-08-28T09:25:23Z</time>
      </trkpt>
      <trkpt lat="43.74105" lon="7.25892">
        <ele>319</ele>
        <time>2010-08-28T09:25:26Z</time>
      </trkpt>
      <trkpt lat="43.74129" lon="7.25919">
        <ele>310</ele>
        <time>2010-08-28T09:25:33Z</time>
      </trkpt>
      <trkpt lat="43.7414" lon="7.25929">
        <ele>311</ele>
        <time>2010-08-28T09:25:36Z</time>
      </trkpt>
      <trkpt lat="43.74162" lon="7.2594">
        <ele>313</ele>
        <time>2010-08-28T09:25:41Z</time>
      </trkpt>
      <trkpt lat="43.74196" lon="7.25953">
        <ele>323</ele>
        <time>2010-08-28T09:25:48Z</time>
      </trkpt>
      <trkpt lat="43.742" lon="7.25956">
        <ele>323</ele>
        <time>2010-08-28T09:25:49Z</time>
      </trkpt>
      <trkpt lat="43.74215" lon="7.25979">
        <ele>322</ele>
        <time>2010-08-28T09:25:54Z</time>
      </trkpt>
      <trkpt lat="43.74217" lon="7.25985">
        <ele>322</ele>
        <time>2010-08-28T09:25:55Z</time>
      </trkpt>
      <trkpt lat="43.74233" lon="7.26037">
        <ele>315</ele>
        <time>2010-08-28T09:26:03Z</time>
      </trkpt>
      <trkpt lat="43.74242" lon="7.26062">
        <ele>316</ele>
        <time>2010-08-28T09:26:07Z</time>
      </trkpt>
      <trkpt lat="43.74257" lon="7.26111">
        <ele>324</ele>
        <time>2010-08-28T09:26:15Z</time>
      </trkpt>
      <trkpt lat="43.7427" lon="7.2615">
        <ele>322</ele>
        <time>2010-08-28T09:26:21Z</time>
      </trkpt>
      <trkpt lat="43.74286" lon="7.26199">
        <ele>319</ele>
        <time>2010-08-28T09:26:28Z</time>
      </trkpt>
      <trkpt lat="43.74292" lon="7.26214">
        <ele>319</ele>
        <time>2010-08-28T09:26:30Z</time>
      </trkpt>
      <trkpt lat="43.74326" lon="7.26274">
        <ele>317</ele>
        <time>2010-08-28T09:26:38Z</time>
      </trkpt>
      <trkpt lat="43.74339" lon="7.26297">
        <ele>321</ele>
        <time>2010-08-28T09:26:41Z</time>
      </trkpt>
      <trkpt lat="43.74346" lon="7.26321">
        <ele>319</ele>
        <time>2010-08-28T09:26:44Z</time>
      </trkpt>
      <trkpt lat="43.74353" lon="7.26334">
        <ele>317</ele>
        <time>2010-08-28T09:26:48Z</time>
      </trkpt>
      <trkpt lat="43.74359" lon="7.26326">
        <ele>320</ele>
        <time>2010-08-28T09:26:52Z</time>
      </trkpt>
      <trkpt lat="43.74371" lon="7.26297">
        <ele>321</ele>
        <time>2010-08-28T09:27:01Z</time>
      </trkpt>
      <trkpt lat="43.7438" lon="7.26273">
        <ele>323</ele>
        <time>2010-08-28T09:27:09Z</time>
      </trkpt>
      <trkpt lat="43.74381" lon="7.2625">
        <ele>324</ele>
        <time>2010-08-28T09:27:16Z</time>
      </trkpt>
      <trkpt lat="43.74373" lon="7.26227">
        <ele>331</ele>
        <time>2010-08-28T09:27:24Z</time>
      </trkpt>
      <trkpt lat="43.74362" lon="7.26197">
        <ele>333</ele>
        <time>2010-08-28T09:27:35Z</time>
      </trkpt>
      <trkpt lat="43.74354" lon="7.26175">
        <ele>333</ele>
        <time>2010-08-28T09:27:43Z</time>
      </trkpt>
      <trkpt lat="43.74344" lon="7.2615">
        <ele>338</ele>
        <time>2010-08-28T09:27:52Z</time>
      </trkpt>
      <trkpt lat="43.74338" lon="7.26124">
        <ele>341</ele>
        <time>2010-08-28T09:28:00Z</time>
      </trkpt>
      <trkpt lat="43.74334" lon="7.26107">
        <ele>341</ele>
        <time>2010-08-28T09:28:05Z</time>
      </trkpt>
      <trkpt lat="43.74326" lon="7.26072">
        <ele>337</ele>
        <time>2010-08-28T09:28:14Z</time>
      </trkpt>
      <trkpt lat="43.74318" lon="7.2605">
        <ele>335</ele>
        <time>2010-08-28T09:28:19Z</time>
      </trkpt>
      <trkpt lat="43.74306" lon="7.26007">
        <ele>336</ele>
        <time>2010-08-28T09:28:28Z</time>
      </trkpt>
      <trkpt lat="43.74294" lon="7.25965">
        <ele>341</ele>
        <time>2010-08-28T09:28:37Z</time>
      </trkpt>
      <trkpt lat="43.74286" lon="7.25933">
        <ele>342</ele>
        <time>2010-08-28T09:28:45Z</time>
      </trkpt>
      <trkpt lat="43.74285" lon="7.25917">
        <ele>350</ele>
        <time>2010-08-28T09:28:50Z</time>
      </trkpt>
      <trkpt lat="43.74293" lon="7.25896">
        <ele>352</ele>
        <time>2010-08-28T09:28:58Z</time>
      </trkpt>
      <trkpt lat="43.74294" lon="7.25894">
        <ele>352</ele>
        <time>2010-08-28T09:28:59Z</time>
      </trkpt>
      <trkpt lat="43.74287" lon="7.25881">
        <ele>353</ele>
        <time>2010-08-28T09:29:05Z</time>
      </trkpt>
      <trkpt lat="43.74277" lon="7.25871">
        <ele>354</ele>
        <time>2010-08-28T09:29:11Z</time>
      </trkpt>
      <trkpt lat="43.74264" lon="7.25863">
        <ele>354</ele>
        <time>2010-08-28T09:29:18Z</time>
      </trkpt>
      <trkpt lat="43.74248" lon="7.25854">
        <ele>348</ele>
        <time>2010-08-28T09:29:26Z</time>
      </trkpt>
      <trkpt lat="43.74235" lon="7.25839">
        <ele>350</ele>
        <time>2010-08-28T09:29:34Z</time>
      </trkpt>
      <trkpt lat="43.74221" lon="7.2582">
        <ele>354</ele>
        <time>2010-08-28T09:29:42Z</time>
      </trkpt>
      <trkpt lat="43.74205" lon="7.25797">
        <ele>352</ele>
        <time>2010-08-28T09:29:50Z</time>
      </trkpt>
      <trkpt lat="43.74195" lon="7.2578">
        <ele>352</ele>
        <time>2010-08-28T09:29:56Z</time>
      </trkpt>
      <trkpt lat="43.74187" lon="7.25756">
        <ele>351</ele>
        <time>2010-08-28T09:30:04Z</time>
      </trkpt>
      <trkpt lat="43.74185" lon="7.25743">
        <ele>356</ele>
        <time>2010-08-28T09:30:10Z</time>
      </trkpt>
      <trkpt lat="43.74186" lon="7.25739">
        <ele>357</ele>
        <time>2010-08-28T09:30:12Z</time>
      </trkpt>
      <trkpt lat="43.74186" lon="7.2573">
        <ele>358</ele>
        <time>2010-08-28T09:30:17Z</time>
      </trkpt>
      <trkpt lat="43.74185" lon="7.25727">
        <ele>358</ele>
        <time>2010-08-28T09:30:23Z</time>
      </trkpt>
      <trkpt lat="43.74182" lon="7.25724">
        <ele>359</ele>
        <time>2010-08-28T09:30:29Z</time>
      </trkpt>
      <trkpt lat="43.74186" lon="7.25727">
        <ele>359</ele>
        <time>2010-08-28T09:30:34Z</time>
      </trkpt>
      <trkpt lat="43.74187" lon="7.25727">
        <ele>359</ele>
        <time>2010-08-28T09:30:41Z</time>
      </trkpt>
      <trkpt lat="43.74187" lon="7.25726">
        <ele>359</ele>
        <time>2010-08-28T09:30:58Z</time>
      </trkpt>
      <trkpt lat="43.74188" lon="7.25725">
        <ele>359</ele>
        <time>2010-08-28T09:31:07Z</time>
      </trkpt>
      <trkpt lat="43.74191" lon="7.25721">
        <ele>360</ele>
        <time>2010-08-28T09:31:11Z</time>
      </trkpt>
      <trkpt lat="43.74197" lon="7.25703">
        <ele>362</ele>
        <time>2010-08-28T09:31:20Z</time>
      </trkpt>
      <trkpt lat="43.74207" lon="7.25691">
        <ele>364</ele>
        <time>2010-08-28T09:31:27Z</time>
      </trkpt>
      <trkpt lat="43.74214" lon="7.25679">
        <ele>366</ele>
        <time>2010-08-28T09:31:33Z</time>
      </trkpt>
      <trkpt lat="43.74226" lon="7.2567">
        <ele>368</ele>
        <time>2010-08-28T09:31:40Z</time>
      </trkpt>
      <trkpt lat="43.74236" lon="7.25663">
        <ele>373</ele>
        <time>2010-08-28T09:31:46Z</time>
      </trkpt>
      <trkpt lat="43.74244" lon="7.25656">
        <ele>373</ele>
        <time>2010-08-28T09:31:50Z</time>
      </trkpt>
      <trkpt lat="43.74255" lon="7.25648">
        <ele>378</ele>
        <time>2010-08-28T09:31:55Z</time>
      </trkpt>
      <trkpt lat="43.74264" lon="7.25641">
        <ele>378</ele>
        <time>2010-08-28T09:31:59Z</time>
      </trkpt>
      <trkpt lat="43.74273" lon="7.25636">
        <ele>378</ele>
        <time>2010-08-28T09:32:02Z</time>
      </trkpt>
      <trkpt lat="43.74277" lon="7.25611">
        <ele>379</ele>
        <time>2010-08-28T09:32:07Z</time>
      </trkpt>
      <trkpt lat="43.74277" lon="7.25606">
        <ele>379</ele>
        <time>2010-08-28T09:32:08Z</time>
      </trkpt>
      <trkpt lat="43.74278" lon="7.25582">
        <ele>381</ele>
        <time>2010-08-28T09:32:12Z</time>
      </trkpt>
      <trkpt lat="43.74279" lon="7.25571">
        <ele>381</ele>
        <time>2010-08-28T09:32:14Z</time>
      </trkpt>
      <trkpt lat="43.74276" lon="7.25556">
        <ele>382</ele>
        <time>2010-08-28T09:32:18Z</time>
      </trkpt>
      <trkpt lat="43.74272" lon="7.25556">
        <ele>381</ele>
        <time>2010-08-28T09:32:22Z</time>
      </trkpt>
      <trkpt lat="43.74272" lon="7.25552">
        <ele>382</ele>
        <time>2010-08-28T09:32:29Z</time>
      </trkpt>
      <trkpt lat="43.74273" lon="7.2555">
        <ele>382</ele>
        <time>2010-08-28T09:32:34Z</time>
      </trkpt>
      <trkpt lat="43.74273" lon="7.2555">
        <ele>382</ele>
        <time>2010-08-28T09:32:43Z</time>
      </trkpt>
      <trkpt lat="43.74272" lon="7.25553">
        <ele>382</ele>
        <time>2010-08-28T09:32:57Z</time>
      </trkpt>
      <trkpt lat="43.74271" lon="7.25553">
        <ele>382</ele>
        <time>2010-08-28T09:33:05Z</time>
      </trkpt>
      <trkpt lat="43.7427" lon="7.25552">
        <ele>382</ele>
        <time>2010-08-28T09:33:11Z</time>
      </trkpt>
      <trkpt lat="43.74269" lon="7.25554">
        <ele>382</ele>
        <time>2010-08-28T09:33:21Z</time>
      </trkpt>
      <trkpt lat="43.74272" lon="7.25553">
        <ele>382</ele>
        <time>2010-08-28T09:33:36Z</time>
      </trkpt>
      <trkpt lat="43.74272" lon="7.25553">
        <ele>382</ele>
        <time>2010-08-28T09:33:44Z</time>
      </trkpt>
      <trkpt lat="43.74269" lon="7.25553">
        <ele>382</ele>
        <time>2010-08-28T09:33:55Z</time>
      </trkpt>
      <trkpt lat="43.74271" lon="7.25554">
        <ele>382</ele>
        <time>2010-08-28T09:34:03Z</time>
      </trkpt>
    </trkseg>
  </trk>
</gpx>